<?xml version="1.0" encoding="UTF-8" standalone="no" ?>
<gpx xmlns="http://www.topografix.com/GPX/1/1" xmlns:xsi="http://www.w3.org/2001/XMLSchema-instance" xsi:schemaLocation="http://www.topografix.com/GPX/1/1 http://www.topografix.com/GPX/1/1/gpx.xsd" version="1.1" creator="VisuGPX - https://www.visugpx.com">
  <metadata>
    <name>Crete de Morettet</name>
    <desc><![CDATA[Crete de Morettet, randonnées du vertige à Buis les Baronnies, sombardier.
]]></desc>
  </metadata>
  <trk>
    <name><![CDATA[2015-10-04-01]]></name>
    <trkseg>
      <trkpt lat="44.97223" lon="5.16793">
        <ele>451.3</ele>
        <time>2015-10-04T08:05:44Z</time>
      </trkpt>
      <trkpt lat="44.97223" lon="5.16795">
        <ele>451.3</ele>
        <time>2015-10-04T08:05:45Z</time>
      </trkpt>
      <trkpt lat="44.97231" lon="5.16815">
        <ele>453.3</ele>
        <time>2015-10-04T08:06:02Z</time>
      </trkpt>
      <trkpt lat="44.97235" lon="5.16823">
        <ele>453.3</ele>
        <time>2015-10-04T08:06:07Z</time>
      </trkpt>
      <trkpt lat="44.97241" lon="5.16833">
        <ele>451.3</ele>
        <time>2015-10-04T08:06:11Z</time>
      </trkpt>
      <trkpt lat="44.97246" lon="5.16843">
        <ele>447.3</ele>
        <time>2015-10-04T08:06:17Z</time>
      </trkpt>
      <trkpt lat="44.97246" lon="5.16854">
        <ele>448.3</ele>
        <time>2015-10-04T08:06:27Z</time>
      </trkpt>
      <trkpt lat="44.9725" lon="5.16864">
        <ele>450.3</ele>
        <time>2015-10-04T08:06:34Z</time>
      </trkpt>
      <trkpt lat="44.97256" lon="5.16871">
        <ele>451.3</ele>
        <time>2015-10-04T08:06:38Z</time>
      </trkpt>
      <trkpt lat="44.97262" lon="5.16879">
        <ele>451.3</ele>
        <time>2015-10-04T08:06:43Z</time>
      </trkpt>
      <trkpt lat="44.97263" lon="5.16892">
        <ele>447.3</ele>
        <time>2015-10-04T08:06:57Z</time>
      </trkpt>
      <trkpt lat="44.97263" lon="5.16892">
        <ele>447.3</ele>
        <time>2015-10-04T08:06:58Z</time>
      </trkpt>
      <trkpt lat="44.97252" lon="5.16909">
        <ele>451.3</ele>
        <time>2015-10-04T08:07:17Z</time>
      </trkpt>
      <trkpt lat="44.97246" lon="5.16915">
        <ele>453.3</ele>
        <time>2015-10-04T08:07:21Z</time>
      </trkpt>
      <trkpt lat="44.9724" lon="5.16924">
        <ele>451.3</ele>
        <time>2015-10-04T08:07:29Z</time>
      </trkpt>
      <trkpt lat="44.97235" lon="5.1693">
        <ele>452.3</ele>
        <time>2015-10-04T08:07:35Z</time>
      </trkpt>
      <trkpt lat="44.97229" lon="5.16939">
        <ele>453.3</ele>
        <time>2015-10-04T08:07:41Z</time>
      </trkpt>
      <trkpt lat="44.97223" lon="5.16948">
        <ele>454.3</ele>
        <time>2015-10-04T08:07:48Z</time>
      </trkpt>
      <trkpt lat="44.97217" lon="5.16956">
        <ele>456.3</ele>
        <time>2015-10-04T08:07:55Z</time>
      </trkpt>
      <trkpt lat="44.97211" lon="5.16966">
        <ele>456.3</ele>
        <time>2015-10-04T08:08:03Z</time>
      </trkpt>
      <trkpt lat="44.97209" lon="5.16967">
        <ele>456.3</ele>
        <time>2015-10-04T08:08:04Z</time>
      </trkpt>
      <trkpt lat="44.97203" lon="5.16986">
        <ele>451.3</ele>
        <time>2015-10-04T08:08:14Z</time>
      </trkpt>
      <trkpt lat="44.97198" lon="5.16986">
        <ele>451.3</ele>
        <time>2015-10-04T08:08:17Z</time>
      </trkpt>
      <trkpt lat="44.97196" lon="5.16997">
        <ele>449.3</ele>
        <time>2015-10-04T08:08:23Z</time>
      </trkpt>
      <trkpt lat="44.97197" lon="5.17009">
        <ele>448.3</ele>
        <time>2015-10-04T08:08:29Z</time>
      </trkpt>
      <trkpt lat="44.97197" lon="5.17019">
        <ele>448.3</ele>
        <time>2015-10-04T08:08:35Z</time>
      </trkpt>
      <trkpt lat="44.97199" lon="5.17031">
        <ele>445.3</ele>
        <time>2015-10-04T08:08:41Z</time>
      </trkpt>
      <trkpt lat="44.97193" lon="5.1704">
        <ele>447.3</ele>
        <time>2015-10-04T08:08:46Z</time>
      </trkpt>
      <trkpt lat="44.97197" lon="5.17049">
        <ele>445.3</ele>
        <time>2015-10-04T08:08:49Z</time>
      </trkpt>
      <trkpt lat="44.97198" lon="5.1706">
        <ele>443.3</ele>
        <time>2015-10-04T08:08:55Z</time>
      </trkpt>
      <trkpt lat="44.97203" lon="5.17068">
        <ele>441.3</ele>
        <time>2015-10-04T08:09:01Z</time>
      </trkpt>
      <trkpt lat="44.97209" lon="5.17077">
        <ele>443.3</ele>
        <time>2015-10-04T08:09:05Z</time>
      </trkpt>
      <trkpt lat="44.9721" lon="5.17077">
        <ele>442.3</ele>
        <time>2015-10-04T08:09:06Z</time>
      </trkpt>
      <trkpt lat="44.97219" lon="5.17094">
        <ele>435.3</ele>
        <time>2015-10-04T08:09:21Z</time>
      </trkpt>
      <trkpt lat="44.97221" lon="5.17102">
        <ele>435.3</ele>
        <time>2015-10-04T08:09:23Z</time>
      </trkpt>
      <trkpt lat="44.97224" lon="5.17113">
        <ele>433.3</ele>
        <time>2015-10-04T08:09:26Z</time>
      </trkpt>
      <trkpt lat="44.97219" lon="5.1712">
        <ele>428.3</ele>
        <time>2015-10-04T08:09:35Z</time>
      </trkpt>
      <trkpt lat="44.97216" lon="5.1713">
        <ele>424.3</ele>
        <time>2015-10-04T08:09:41Z</time>
      </trkpt>
      <trkpt lat="44.97213" lon="5.17141">
        <ele>423.3</ele>
        <time>2015-10-04T08:09:47Z</time>
      </trkpt>
      <trkpt lat="44.97213" lon="5.17153">
        <ele>421.3</ele>
        <time>2015-10-04T08:09:51Z</time>
      </trkpt>
      <trkpt lat="44.97212" lon="5.17165">
        <ele>421.3</ele>
        <time>2015-10-04T08:09:58Z</time>
      </trkpt>
      <trkpt lat="44.97212" lon="5.17177">
        <ele>421.3</ele>
        <time>2015-10-04T08:10:04Z</time>
      </trkpt>
      <trkpt lat="44.97212" lon="5.17188">
        <ele>424.3</ele>
        <time>2015-10-04T08:10:08Z</time>
      </trkpt>
      <trkpt lat="44.97213" lon="5.17192">
        <ele>424.3</ele>
        <time>2015-10-04T08:10:09Z</time>
      </trkpt>
      <trkpt lat="44.97213" lon="5.17211">
        <ele>426.3</ele>
        <time>2015-10-04T08:10:27Z</time>
      </trkpt>
      <trkpt lat="44.97211" lon="5.17222">
        <ele>430.3</ele>
        <time>2015-10-04T08:10:33Z</time>
      </trkpt>
      <trkpt lat="44.97213" lon="5.17234">
        <ele>426.3</ele>
        <time>2015-10-04T08:10:41Z</time>
      </trkpt>
      <trkpt lat="44.97216" lon="5.17244">
        <ele>425.3</ele>
        <time>2015-10-04T08:10:51Z</time>
      </trkpt>
      <trkpt lat="44.97225" lon="5.17245">
        <ele>423.3</ele>
        <time>2015-10-04T08:11:04Z</time>
      </trkpt>
      <trkpt lat="44.97224" lon="5.17256">
        <ele>424.3</ele>
        <time>2015-10-04T08:11:27Z</time>
      </trkpt>
      <trkpt lat="44.97224" lon="5.17259">
        <ele>422.3</ele>
        <time>2015-10-04T08:11:28Z</time>
      </trkpt>
      <trkpt lat="44.97217" lon="5.17269">
        <ele>414.3</ele>
        <time>2015-10-04T08:11:32Z</time>
      </trkpt>
      <trkpt lat="44.9721" lon="5.17271">
        <ele>412.3</ele>
        <time>2015-10-04T08:11:33Z</time>
      </trkpt>
      <trkpt lat="44.97207" lon="5.1728">
        <ele>407.3</ele>
        <time>2015-10-04T08:11:37Z</time>
      </trkpt>
      <trkpt lat="44.97201" lon="5.17288">
        <ele>405.3</ele>
        <time>2015-10-04T08:13:26Z</time>
      </trkpt>
      <trkpt lat="44.97197" lon="5.17289">
        <ele>402.3</ele>
        <time>2015-10-04T08:13:27Z</time>
      </trkpt>
      <trkpt lat="44.97186" lon="5.17286">
        <ele>402.3</ele>
        <time>2015-10-04T08:13:34Z</time>
      </trkpt>
      <trkpt lat="44.97183" lon="5.17291">
        <ele>403.3</ele>
        <time>2015-10-04T08:13:54Z</time>
      </trkpt>
      <trkpt lat="44.97171" lon="5.17312">
        <ele>404.3</ele>
        <time>2015-10-04T08:14:07Z</time>
      </trkpt>
      <trkpt lat="44.97168" lon="5.17322">
        <ele>408.3</ele>
        <time>2015-10-04T08:14:12Z</time>
      </trkpt>
      <trkpt lat="44.97162" lon="5.17331">
        <ele>413.3</ele>
        <time>2015-10-04T08:15:37Z</time>
      </trkpt>
      <trkpt lat="44.97161" lon="5.17335">
        <ele>412.3</ele>
        <time>2015-10-04T08:15:38Z</time>
      </trkpt>
      <trkpt lat="44.97158" lon="5.1735">
        <ele>407.3</ele>
        <time>2015-10-04T08:15:49Z</time>
      </trkpt>
      <trkpt lat="44.97154" lon="5.17361">
        <ele>408.3</ele>
        <time>2015-10-04T08:16:01Z</time>
      </trkpt>
      <trkpt lat="44.97152" lon="5.17373">
        <ele>406.3</ele>
        <time>2015-10-04T08:16:21Z</time>
      </trkpt>
      <trkpt lat="44.97149" lon="5.17385">
        <ele>404.3</ele>
        <time>2015-10-04T08:16:36Z</time>
      </trkpt>
      <trkpt lat="44.97142" lon="5.17391">
        <ele>426.3</ele>
        <time>2015-10-04T08:17:29Z</time>
      </trkpt>
      <trkpt lat="44.97141" lon="5.17392">
        <ele>423.3</ele>
        <time>2015-10-04T08:17:34Z</time>
      </trkpt>
      <trkpt lat="44.97133" lon="5.17378">
        <ele>417.3</ele>
        <time>2015-10-04T08:17:38Z</time>
      </trkpt>
      <trkpt lat="44.9713" lon="5.17373">
        <ele>414.3</ele>
        <time>2015-10-04T08:17:40Z</time>
      </trkpt>
      <trkpt lat="44.97126" lon="5.17383">
        <ele>404.3</ele>
        <time>2015-10-04T08:18:17Z</time>
      </trkpt>
      <trkpt lat="44.9712" lon="5.17384">
        <ele>397.3</ele>
        <time>2015-10-04T08:18:55Z</time>
      </trkpt>
      <trkpt lat="44.97113" lon="5.17375">
        <ele>393.3</ele>
        <time>2015-10-04T08:19:09Z</time>
      </trkpt>
      <trkpt lat="44.97106" lon="5.17371">
        <ele>411.3</ele>
        <time>2015-10-04T08:26:27Z</time>
      </trkpt>
      <trkpt lat="44.97106" lon="5.17365">
        <ele>418.3</ele>
        <time>2015-10-04T08:26:28Z</time>
      </trkpt>
      <trkpt lat="44.97105" lon="5.1737">
        <ele>441.3</ele>
        <time>2015-10-04T08:27:08Z</time>
      </trkpt>
      <trkpt lat="44.97098" lon="5.17368">
        <ele>451.3</ele>
        <time>2015-10-04T08:29:09Z</time>
      </trkpt>
      <trkpt lat="44.97093" lon="5.17377">
        <ele>451.3</ele>
        <time>2015-10-04T08:29:10Z</time>
      </trkpt>
      <trkpt lat="44.97085" lon="5.17382">
        <ele>442.3</ele>
        <time>2015-10-04T08:29:14Z</time>
      </trkpt>
      <trkpt lat="44.9708" lon="5.17384">
        <ele>435.3</ele>
        <time>2015-10-04T08:29:16Z</time>
      </trkpt>
      <trkpt lat="44.97076" lon="5.17388">
        <ele>430.3</ele>
        <time>2015-10-04T08:29:18Z</time>
      </trkpt>
      <trkpt lat="44.97069" lon="5.17385">
        <ele>435.3</ele>
        <time>2015-10-04T08:29:30Z</time>
      </trkpt>
      <trkpt lat="44.97061" lon="5.17388">
        <ele>429.3</ele>
        <time>2015-10-04T08:29:54Z</time>
      </trkpt>
      <trkpt lat="44.97054" lon="5.17392">
        <ele>448.3</ele>
        <time>2015-10-04T08:30:11Z</time>
      </trkpt>
      <trkpt lat="44.97051" lon="5.17389">
        <ele>456.3</ele>
        <time>2015-10-04T08:30:25Z</time>
      </trkpt>
      <trkpt lat="44.97044" lon="5.17397">
        <ele>458.3</ele>
        <time>2015-10-04T08:33:26Z</time>
      </trkpt>
      <trkpt lat="44.97037" lon="5.17414">
        <ele>456.3</ele>
        <time>2015-10-04T08:34:02Z</time>
      </trkpt>
      <trkpt lat="44.97038" lon="5.17417">
        <ele>455.3</ele>
        <time>2015-10-04T08:34:03Z</time>
      </trkpt>
      <trkpt lat="44.97034" lon="5.1743">
        <ele>458.3</ele>
        <time>2015-10-04T08:34:21Z</time>
      </trkpt>
      <trkpt lat="44.97034" lon="5.17431">
        <ele>459.3</ele>
        <time>2015-10-04T08:34:52Z</time>
      </trkpt>
      <trkpt lat="44.97052" lon="5.17446">
        <ele>460.3</ele>
        <time>2015-10-04T08:35:09Z</time>
      </trkpt>
      <trkpt lat="44.97055" lon="5.17456">
        <ele>463.3</ele>
        <time>2015-10-04T08:35:13Z</time>
      </trkpt>
      <trkpt lat="44.97058" lon="5.17467">
        <ele>468.3</ele>
        <time>2015-10-04T08:36:55Z</time>
      </trkpt>
      <trkpt lat="44.97061" lon="5.17468">
        <ele>469.3</ele>
        <time>2015-10-04T08:36:57Z</time>
      </trkpt>
      <trkpt lat="44.9706" lon="5.17487">
        <ele>479.3</ele>
        <time>2015-10-04T08:37:53Z</time>
      </trkpt>
      <trkpt lat="44.97063" lon="5.17497">
        <ele>487.3</ele>
        <time>2015-10-04T08:38:01Z</time>
      </trkpt>
      <trkpt lat="44.97064" lon="5.17509">
        <ele>498.3</ele>
        <time>2015-10-04T08:38:42Z</time>
      </trkpt>
      <trkpt lat="44.97072" lon="5.17515">
        <ele>507.3</ele>
        <time>2015-10-04T08:40:04Z</time>
      </trkpt>
      <trkpt lat="44.97072" lon="5.17516">
        <ele>507.3</ele>
        <time>2015-10-04T08:40:05Z</time>
      </trkpt>
      <trkpt lat="44.9708" lon="5.17536">
        <ele>511.3</ele>
        <time>2015-10-04T08:41:02Z</time>
      </trkpt>
      <trkpt lat="44.97083" lon="5.17547">
        <ele>516.3</ele>
        <time>2015-10-04T08:41:38Z</time>
      </trkpt>
      <trkpt lat="44.97084" lon="5.17548">
        <ele>516.3</ele>
        <time>2015-10-04T08:41:39Z</time>
      </trkpt>
      <trkpt lat="44.97094" lon="5.17564">
        <ele>518.3</ele>
        <time>2015-10-04T08:43:09Z</time>
      </trkpt>
      <trkpt lat="44.97095" lon="5.17563">
        <ele>519.3</ele>
        <time>2015-10-04T08:43:10Z</time>
      </trkpt>
      <trkpt lat="44.97108" lon="5.17553">
        <ele>530.3</ele>
        <time>2015-10-04T08:43:38Z</time>
      </trkpt>
      <trkpt lat="44.97114" lon="5.17546">
        <ele>528.3</ele>
        <time>2015-10-04T08:44:13Z</time>
      </trkpt>
      <trkpt lat="44.97115" lon="5.17545">
        <ele>526.3</ele>
        <time>2015-10-04T08:44:14Z</time>
      </trkpt>
      <trkpt lat="44.97117" lon="5.17524">
        <ele>540.3</ele>
        <time>2015-10-04T08:44:57Z</time>
      </trkpt>
      <trkpt lat="44.97121" lon="5.17513">
        <ele>545.3</ele>
        <time>2015-10-04T08:45:20Z</time>
      </trkpt>
      <trkpt lat="44.97121" lon="5.17512">
        <ele>545.3</ele>
        <time>2015-10-04T08:45:21Z</time>
      </trkpt>
      <trkpt lat="44.97116" lon="5.17495">
        <ele>563.3</ele>
        <time>2015-10-04T08:46:30Z</time>
      </trkpt>
      <trkpt lat="44.97116" lon="5.17494">
        <ele>564.3</ele>
        <time>2015-10-04T08:46:31Z</time>
      </trkpt>
      <trkpt lat="44.97109" lon="5.17473">
        <ele>572.3</ele>
        <time>2015-10-04T08:47:40Z</time>
      </trkpt>
      <trkpt lat="44.97109" lon="5.17472">
        <ele>572.3</ele>
        <time>2015-10-04T08:47:41Z</time>
      </trkpt>
      <trkpt lat="44.97116" lon="5.17479">
        <ele>581.3</ele>
        <time>2015-10-04T08:50:21Z</time>
      </trkpt>
      <trkpt lat="44.97117" lon="5.17479">
        <ele>580.3</ele>
        <time>2015-10-04T08:50:22Z</time>
      </trkpt>
      <trkpt lat="44.97125" lon="5.1748">
        <ele>581.3</ele>
        <time>2015-10-04T08:54:17Z</time>
      </trkpt>
      <trkpt lat="44.97126" lon="5.1748">
        <ele>582.3</ele>
        <time>2015-10-04T08:54:18Z</time>
      </trkpt>
      <trkpt lat="44.97139" lon="5.17471">
        <ele>595.3</ele>
        <time>2015-10-04T08:56:37Z</time>
      </trkpt>
      <trkpt lat="44.97137" lon="5.17466">
        <ele>596.3</ele>
        <time>2015-10-04T08:56:39Z</time>
      </trkpt>
      <trkpt lat="44.9715" lon="5.17479">
        <ele>585.3</ele>
        <time>2015-10-04T08:57:34Z</time>
      </trkpt>
      <trkpt lat="44.97158" lon="5.17475">
        <ele>587.3</ele>
        <time>2015-10-04T08:57:42Z</time>
      </trkpt>
      <trkpt lat="44.97159" lon="5.17474">
        <ele>585.3</ele>
        <time>2015-10-04T08:57:43Z</time>
      </trkpt>
      <trkpt lat="44.97145" lon="5.17462">
        <ele>588.3</ele>
        <time>2015-10-04T08:58:20Z</time>
      </trkpt>
      <trkpt lat="44.97151" lon="5.17468">
        <ele>588.3</ele>
        <time>2015-10-04T09:01:09Z</time>
      </trkpt>
      <trkpt lat="44.97154" lon="5.17467">
        <ele>588.3</ele>
        <time>2015-10-04T09:01:10Z</time>
      </trkpt>
      <trkpt lat="44.97166" lon="5.17467">
        <ele>589.3</ele>
        <time>2015-10-04T09:01:23Z</time>
      </trkpt>
      <trkpt lat="44.97172" lon="5.17468">
        <ele>595.3</ele>
        <time>2015-10-04T09:03:34Z</time>
      </trkpt>
      <trkpt lat="44.97176" lon="5.17471">
        <ele>593.3</ele>
        <time>2015-10-04T09:03:35Z</time>
      </trkpt>
      <trkpt lat="44.97175" lon="5.17463">
        <ele>611.3</ele>
        <time>2015-10-04T09:05:58Z</time>
      </trkpt>
      <trkpt lat="44.97175" lon="5.17463">
        <ele>612.3</ele>
        <time>2015-10-04T09:05:59Z</time>
      </trkpt>
      <trkpt lat="44.97167" lon="5.1747">
        <ele>616.3</ele>
        <time>2015-10-04T09:12:43Z</time>
      </trkpt>
      <trkpt lat="44.97167" lon="5.17471">
        <ele>617.3</ele>
        <time>2015-10-04T09:12:44Z</time>
      </trkpt>
      <trkpt lat="44.97157" lon="5.1749">
        <ele>629.3</ele>
        <time>2015-10-04T09:15:26Z</time>
      </trkpt>
      <trkpt lat="44.97156" lon="5.1749">
        <ele>630.3</ele>
        <time>2015-10-04T09:15:27Z</time>
      </trkpt>
      <trkpt lat="44.97159" lon="5.17515">
        <ele>630.3</ele>
        <time>2015-10-04T09:16:12Z</time>
      </trkpt>
      <trkpt lat="44.97156" lon="5.17527">
        <ele>630.3</ele>
        <time>2015-10-04T09:16:28Z</time>
      </trkpt>
      <trkpt lat="44.97156" lon="5.17527">
        <ele>630.3</ele>
        <time>2015-10-04T09:16:29Z</time>
      </trkpt>
      <trkpt lat="44.97146" lon="5.17541">
        <ele>641.3</ele>
        <time>2015-10-04T09:17:20Z</time>
      </trkpt>
      <trkpt lat="44.97149" lon="5.17553">
        <ele>640.3</ele>
        <time>2015-10-04T09:20:18Z</time>
      </trkpt>
      <trkpt lat="44.9715" lon="5.17554">
        <ele>640.3</ele>
        <time>2015-10-04T09:20:19Z</time>
      </trkpt>
      <trkpt lat="44.97159" lon="5.17574">
        <ele>633.3</ele>
        <time>2015-10-04T09:25:13Z</time>
      </trkpt>
      <trkpt lat="44.9716" lon="5.17574">
        <ele>633.3</ele>
        <time>2015-10-04T09:25:15Z</time>
      </trkpt>
      <trkpt lat="44.9716" lon="5.17587">
        <ele>625.3</ele>
        <time>2015-10-04T09:27:48Z</time>
      </trkpt>
      <trkpt lat="44.97151" lon="5.17589">
        <ele>619.3</ele>
        <time>2015-10-04T09:31:55Z</time>
      </trkpt>
      <trkpt lat="44.9715" lon="5.17588">
        <ele>620.3</ele>
        <time>2015-10-04T09:31:56Z</time>
      </trkpt>
      <trkpt lat="44.97138" lon="5.17585">
        <ele>630.3</ele>
        <time>2015-10-04T09:32:49Z</time>
      </trkpt>
      <trkpt lat="44.97144" lon="5.17576">
        <ele>626.3</ele>
        <time>2015-10-04T09:33:11Z</time>
      </trkpt>
      <trkpt lat="44.97145" lon="5.17574">
        <ele>626.3</ele>
        <time>2015-10-04T09:33:13Z</time>
      </trkpt>
      <trkpt lat="44.97139" lon="5.17571">
        <ele>621.3</ele>
        <time>2015-10-04T09:35:34Z</time>
      </trkpt>
      <trkpt lat="44.97137" lon="5.17571">
        <ele>620.3</ele>
        <time>2015-10-04T09:35:35Z</time>
      </trkpt>
      <trkpt lat="44.97131" lon="5.17581">
        <ele>636.3</ele>
        <time>2015-10-04T09:39:19Z</time>
      </trkpt>
      <trkpt lat="44.97127" lon="5.17589">
        <ele>638.3</ele>
        <time>2015-10-04T09:39:20Z</time>
      </trkpt>
      <trkpt lat="44.97138" lon="5.17592">
        <ele>635.3</ele>
        <time>2015-10-04T09:39:32Z</time>
      </trkpt>
      <trkpt lat="44.97144" lon="5.17583">
        <ele>637.3</ele>
        <time>2015-10-04T09:40:37Z</time>
      </trkpt>
      <trkpt lat="44.97145" lon="5.17583">
        <ele>636.3</ele>
        <time>2015-10-04T09:40:38Z</time>
      </trkpt>
      <trkpt lat="44.97152" lon="5.17579">
        <ele>647.3</ele>
        <time>2015-10-04T09:42:40Z</time>
      </trkpt>
      <trkpt lat="44.97153" lon="5.17578">
        <ele>647.3</ele>
        <time>2015-10-04T09:42:41Z</time>
      </trkpt>
      <trkpt lat="44.97167" lon="5.1759">
        <ele>636.3</ele>
        <time>2015-10-04T09:44:14Z</time>
      </trkpt>
      <trkpt lat="44.97167" lon="5.17591">
        <ele>636.3</ele>
        <time>2015-10-04T09:44:15Z</time>
      </trkpt>
      <trkpt lat="44.97171" lon="5.17601">
        <ele>633.3</ele>
        <time>2015-10-04T09:45:28Z</time>
      </trkpt>
      <trkpt lat="44.97181" lon="5.17619">
        <ele>643.3</ele>
        <time>2015-10-04T09:46:08Z</time>
      </trkpt>
      <trkpt lat="44.97188" lon="5.17626">
        <ele>649.3</ele>
        <time>2015-10-04T09:47:43Z</time>
      </trkpt>
      <trkpt lat="44.97188" lon="5.17627">
        <ele>650.3</ele>
        <time>2015-10-04T09:47:46Z</time>
      </trkpt>
      <trkpt lat="44.97199" lon="5.1764">
        <ele>656.3</ele>
        <time>2015-10-04T09:49:31Z</time>
      </trkpt>
      <trkpt lat="44.972" lon="5.1764">
        <ele>656.3</ele>
        <time>2015-10-04T09:49:32Z</time>
      </trkpt>
      <trkpt lat="44.97215" lon="5.17646">
        <ele>659.3</ele>
        <time>2015-10-04T09:49:49Z</time>
      </trkpt>
      <trkpt lat="44.97223" lon="5.17647">
        <ele>660.3</ele>
        <time>2015-10-04T09:49:56Z</time>
      </trkpt>
      <trkpt lat="44.97231" lon="5.17645">
        <ele>663.3</ele>
        <time>2015-10-04T09:50:05Z</time>
      </trkpt>
      <trkpt lat="44.97239" lon="5.17642">
        <ele>663.3</ele>
        <time>2015-10-04T09:50:14Z</time>
      </trkpt>
      <trkpt lat="44.97245" lon="5.1765">
        <ele>659.3</ele>
        <time>2015-10-04T09:50:22Z</time>
      </trkpt>
      <trkpt lat="44.97246" lon="5.17657">
        <ele>659.3</ele>
        <time>2015-10-04T09:50:27Z</time>
      </trkpt>
      <trkpt lat="44.97248" lon="5.17666">
        <ele>660.3</ele>
        <time>2015-10-04T09:50:33Z</time>
      </trkpt>
      <trkpt lat="44.97256" lon="5.17671">
        <ele>663.3</ele>
        <time>2015-10-04T09:50:41Z</time>
      </trkpt>
      <trkpt lat="44.97264" lon="5.17677">
        <ele>663.3</ele>
        <time>2015-10-04T09:50:50Z</time>
      </trkpt>
      <trkpt lat="44.97266" lon="5.17679">
        <ele>663.3</ele>
        <time>2015-10-04T09:50:52Z</time>
      </trkpt>
      <trkpt lat="44.97276" lon="5.17685">
        <ele>665.3</ele>
        <time>2015-10-04T09:51:01Z</time>
      </trkpt>
      <trkpt lat="44.97284" lon="5.17686">
        <ele>668.3</ele>
        <time>2015-10-04T09:51:10Z</time>
      </trkpt>
      <trkpt lat="44.9729" lon="5.17688">
        <ele>666.3</ele>
        <time>2015-10-04T09:51:15Z</time>
      </trkpt>
      <trkpt lat="44.97297" lon="5.17693">
        <ele>667.3</ele>
        <time>2015-10-04T09:51:22Z</time>
      </trkpt>
      <trkpt lat="44.97305" lon="5.17699">
        <ele>667.3</ele>
        <time>2015-10-04T09:51:30Z</time>
      </trkpt>
      <trkpt lat="44.97306" lon="5.17704">
        <ele>667.3</ele>
        <time>2015-10-04T09:51:44Z</time>
      </trkpt>
      <trkpt lat="44.97293" lon="5.17707">
        <ele>671.3</ele>
        <time>2015-10-04T09:52:01Z</time>
      </trkpt>
      <trkpt lat="44.97287" lon="5.17715">
        <ele>672.3</ele>
        <time>2015-10-04T09:52:16Z</time>
      </trkpt>
      <trkpt lat="44.97279" lon="5.1772">
        <ele>676.3</ele>
        <time>2015-10-04T09:52:36Z</time>
      </trkpt>
      <trkpt lat="44.9727" lon="5.17724">
        <ele>679.3</ele>
        <time>2015-10-04T09:52:54Z</time>
      </trkpt>
      <trkpt lat="44.97261" lon="5.17724">
        <ele>685.3</ele>
        <time>2015-10-04T09:53:18Z</time>
      </trkpt>
      <trkpt lat="44.97261" lon="5.17724">
        <ele>685.3</ele>
        <time>2015-10-04T09:53:20Z</time>
      </trkpt>
      <trkpt lat="44.97248" lon="5.17725">
        <ele>691.3</ele>
        <time>2015-10-04T09:54:13Z</time>
      </trkpt>
      <trkpt lat="44.9724" lon="5.17723">
        <ele>692.3</ele>
        <time>2015-10-04T09:54:27Z</time>
      </trkpt>
      <trkpt lat="44.97239" lon="5.17723">
        <ele>692.3</ele>
        <time>2015-10-04T09:54:28Z</time>
      </trkpt>
      <trkpt lat="44.97223" lon="5.17724">
        <ele>696.3</ele>
        <time>2015-10-04T09:54:48Z</time>
      </trkpt>
      <trkpt lat="44.97215" lon="5.17719">
        <ele>697.3</ele>
        <time>2015-10-04T09:54:59Z</time>
      </trkpt>
      <trkpt lat="44.97206" lon="5.17718">
        <ele>702.3</ele>
        <time>2015-10-04T09:55:07Z</time>
      </trkpt>
      <trkpt lat="44.97198" lon="5.1772">
        <ele>703.3</ele>
        <time>2015-10-04T09:55:18Z</time>
      </trkpt>
      <trkpt lat="44.97189" lon="5.17722">
        <ele>703.3</ele>
        <time>2015-10-04T09:55:28Z</time>
      </trkpt>
      <trkpt lat="44.97188" lon="5.17722">
        <ele>703.3</ele>
        <time>2015-10-04T09:55:29Z</time>
      </trkpt>
      <trkpt lat="44.97173" lon="5.17728">
        <ele>709.3</ele>
        <time>2015-10-04T09:55:46Z</time>
      </trkpt>
      <trkpt lat="44.97165" lon="5.17733">
        <ele>709.3</ele>
        <time>2015-10-04T09:55:55Z</time>
      </trkpt>
      <trkpt lat="44.97158" lon="5.17738">
        <ele>710.3</ele>
        <time>2015-10-04T09:56:04Z</time>
      </trkpt>
      <trkpt lat="44.9715" lon="5.17739">
        <ele>712.3</ele>
        <time>2015-10-04T09:56:11Z</time>
      </trkpt>
      <trkpt lat="44.97143" lon="5.17745">
        <ele>712.3</ele>
        <time>2015-10-04T09:56:22Z</time>
      </trkpt>
      <trkpt lat="44.97136" lon="5.17753">
        <ele>714.3</ele>
        <time>2015-10-04T09:56:33Z</time>
      </trkpt>
      <trkpt lat="44.97136" lon="5.17754">
        <ele>714.3</ele>
        <time>2015-10-04T09:56:34Z</time>
      </trkpt>
      <trkpt lat="44.97146" lon="5.17773">
        <ele>723.3</ele>
        <time>2015-10-04T09:57:31Z</time>
      </trkpt>
      <trkpt lat="44.97151" lon="5.17781">
        <ele>725.3</ele>
        <time>2015-10-04T09:57:43Z</time>
      </trkpt>
      <trkpt lat="44.97153" lon="5.17782">
        <ele>726.3</ele>
        <time>2015-10-04T09:57:45Z</time>
      </trkpt>
      <trkpt lat="44.97165" lon="5.17791">
        <ele>732.3</ele>
        <time>2015-10-04T09:58:11Z</time>
      </trkpt>
      <trkpt lat="44.97174" lon="5.17796">
        <ele>735.3</ele>
        <time>2015-10-04T09:58:26Z</time>
      </trkpt>
      <trkpt lat="44.97183" lon="5.17795">
        <ele>739.3</ele>
        <time>2015-10-04T09:58:48Z</time>
      </trkpt>
      <trkpt lat="44.97183" lon="5.17796">
        <ele>740.3</ele>
        <time>2015-10-04T09:58:49Z</time>
      </trkpt>
      <trkpt lat="44.97199" lon="5.17798">
        <ele>746.3</ele>
        <time>2015-10-04T09:59:30Z</time>
      </trkpt>
      <trkpt lat="44.97206" lon="5.17802">
        <ele>746.3</ele>
        <time>2015-10-04T09:59:42Z</time>
      </trkpt>
      <trkpt lat="44.97215" lon="5.17803">
        <ele>748.3</ele>
        <time>2015-10-04T09:59:54Z</time>
      </trkpt>
      <trkpt lat="44.97216" lon="5.17804">
        <ele>748.3</ele>
        <time>2015-10-04T09:59:55Z</time>
      </trkpt>
      <trkpt lat="44.97232" lon="5.17809">
        <ele>753.3</ele>
        <time>2015-10-04T10:00:21Z</time>
      </trkpt>
      <trkpt lat="44.9724" lon="5.17814">
        <ele>754.3</ele>
        <time>2015-10-04T10:00:34Z</time>
      </trkpt>
      <trkpt lat="44.97248" lon="5.17818">
        <ele>755.3</ele>
        <time>2015-10-04T10:00:45Z</time>
      </trkpt>
      <trkpt lat="44.97253" lon="5.17826">
        <ele>761.3</ele>
        <time>2015-10-04T10:01:01Z</time>
      </trkpt>
      <trkpt lat="44.97254" lon="5.17827">
        <ele>761.3</ele>
        <time>2015-10-04T10:01:02Z</time>
      </trkpt>
      <trkpt lat="44.97267" lon="5.17836">
        <ele>765.3</ele>
        <time>2015-10-04T10:01:40Z</time>
      </trkpt>
      <trkpt lat="44.97276" lon="5.17834">
        <ele>767.3</ele>
        <time>2015-10-04T10:02:54Z</time>
      </trkpt>
      <trkpt lat="44.97276" lon="5.17834">
        <ele>767.3</ele>
        <time>2015-10-04T10:02:55Z</time>
      </trkpt>
      <trkpt lat="44.97293" lon="5.17837">
        <ele>771.3</ele>
        <time>2015-10-04T10:03:27Z</time>
      </trkpt>
      <trkpt lat="44.97302" lon="5.17835">
        <ele>774.3</ele>
        <time>2015-10-04T10:03:41Z</time>
      </trkpt>
      <trkpt lat="44.9731" lon="5.17837">
        <ele>777.3</ele>
        <time>2015-10-04T10:03:51Z</time>
      </trkpt>
      <trkpt lat="44.97314" lon="5.17845">
        <ele>779.3</ele>
        <time>2015-10-04T10:04:01Z</time>
      </trkpt>
      <trkpt lat="44.97316" lon="5.17852">
        <ele>781.3</ele>
        <time>2015-10-04T10:04:09Z</time>
      </trkpt>
      <trkpt lat="44.97322" lon="5.17864">
        <ele>783.3</ele>
        <time>2015-10-04T10:04:22Z</time>
      </trkpt>
      <trkpt lat="44.97327" lon="5.17873">
        <ele>785.3</ele>
        <time>2015-10-04T10:04:30Z</time>
      </trkpt>
      <trkpt lat="44.97334" lon="5.1788">
        <ele>788.3</ele>
        <time>2015-10-04T10:04:40Z</time>
      </trkpt>
      <trkpt lat="44.97339" lon="5.17884">
        <ele>790.3</ele>
        <time>2015-10-04T10:04:46Z</time>
      </trkpt>
      <trkpt lat="44.97344" lon="5.17893">
        <ele>790.3</ele>
        <time>2015-10-04T10:04:54Z</time>
      </trkpt>
      <trkpt lat="44.9735" lon="5.17901">
        <ele>791.3</ele>
        <time>2015-10-04T10:05:02Z</time>
      </trkpt>
      <trkpt lat="44.97357" lon="5.17907">
        <ele>793.3</ele>
        <time>2015-10-04T10:05:11Z</time>
      </trkpt>
      <trkpt lat="44.97358" lon="5.1791">
        <ele>793.3</ele>
        <time>2015-10-04T10:05:14Z</time>
      </trkpt>
      <trkpt lat="44.97364" lon="5.17919">
        <ele>793.3</ele>
        <time>2015-10-04T10:05:22Z</time>
      </trkpt>
      <trkpt lat="44.97373" lon="5.17922">
        <ele>795.3</ele>
        <time>2015-10-04T10:05:34Z</time>
      </trkpt>
      <trkpt lat="44.97381" lon="5.17925">
        <ele>797.3</ele>
        <time>2015-10-04T10:05:43Z</time>
      </trkpt>
      <trkpt lat="44.9739" lon="5.17927">
        <ele>799.3</ele>
        <time>2015-10-04T10:05:53Z</time>
      </trkpt>
      <trkpt lat="44.97398" lon="5.17924">
        <ele>801.3</ele>
        <time>2015-10-04T10:06:02Z</time>
      </trkpt>
      <trkpt lat="44.97406" lon="5.17927">
        <ele>804.3</ele>
        <time>2015-10-04T10:06:12Z</time>
      </trkpt>
      <trkpt lat="44.97419" lon="5.17942">
        <ele>804.3</ele>
        <time>2015-10-04T10:06:31Z</time>
      </trkpt>
      <trkpt lat="44.97427" lon="5.17948">
        <ele>805.3</ele>
        <time>2015-10-04T10:06:43Z</time>
      </trkpt>
      <trkpt lat="44.97432" lon="5.17955">
        <ele>805.3</ele>
        <time>2015-10-04T10:06:50Z</time>
      </trkpt>
      <trkpt lat="44.97438" lon="5.17962">
        <ele>807.3</ele>
        <time>2015-10-04T10:07:00Z</time>
      </trkpt>
      <trkpt lat="44.97447" lon="5.17967">
        <ele>809.3</ele>
        <time>2015-10-04T10:07:18Z</time>
      </trkpt>
      <trkpt lat="44.97455" lon="5.17969">
        <ele>810.3</ele>
        <time>2015-10-04T10:07:31Z</time>
      </trkpt>
      <trkpt lat="44.97456" lon="5.1797">
        <ele>810.3</ele>
        <time>2015-10-04T10:07:32Z</time>
      </trkpt>
      <trkpt lat="44.97463" lon="5.17986">
        <ele>805.3</ele>
        <time>2015-10-04T10:08:32Z</time>
      </trkpt>
      <trkpt lat="44.97467" lon="5.17997">
        <ele>806.3</ele>
        <time>2015-10-04T10:08:41Z</time>
      </trkpt>
      <trkpt lat="44.97473" lon="5.18006">
        <ele>807.3</ele>
        <time>2015-10-04T10:08:49Z</time>
      </trkpt>
      <trkpt lat="44.97477" lon="5.18015">
        <ele>807.3</ele>
        <time>2015-10-04T10:08:56Z</time>
      </trkpt>
      <trkpt lat="44.97482" lon="5.18023">
        <ele>807.3</ele>
        <time>2015-10-04T10:09:04Z</time>
      </trkpt>
      <trkpt lat="44.9749" lon="5.1803">
        <ele>807.3</ele>
        <time>2015-10-04T10:09:12Z</time>
      </trkpt>
      <trkpt lat="44.97491" lon="5.18031">
        <ele>807.3</ele>
        <time>2015-10-04T10:09:13Z</time>
      </trkpt>
      <trkpt lat="44.97504" lon="5.18032">
        <ele>808.3</ele>
        <time>2015-10-04T10:09:27Z</time>
      </trkpt>
      <trkpt lat="44.97514" lon="5.1804">
        <ele>809.3</ele>
        <time>2015-10-04T10:09:38Z</time>
      </trkpt>
      <trkpt lat="44.97518" lon="5.1804">
        <ele>811.3</ele>
        <time>2015-10-04T10:09:43Z</time>
      </trkpt>
      <trkpt lat="44.97527" lon="5.18043">
        <ele>811.3</ele>
        <time>2015-10-04T10:09:54Z</time>
      </trkpt>
      <trkpt lat="44.97536" lon="5.1804">
        <ele>814.3</ele>
        <time>2015-10-04T10:10:07Z</time>
      </trkpt>
      <trkpt lat="44.97544" lon="5.18037">
        <ele>815.3</ele>
        <time>2015-10-04T10:10:24Z</time>
      </trkpt>
      <trkpt lat="44.97552" lon="5.18033">
        <ele>822.3</ele>
        <time>2015-10-04T10:10:45Z</time>
      </trkpt>
      <trkpt lat="44.97558" lon="5.18029">
        <ele>826.3</ele>
        <time>2015-10-04T10:10:55Z</time>
      </trkpt>
      <trkpt lat="44.97569" lon="5.18032">
        <ele>828.3</ele>
        <time>2015-10-04T10:12:15Z</time>
      </trkpt>
      <trkpt lat="44.97572" lon="5.18034">
        <ele>827.3</ele>
        <time>2015-10-04T10:12:18Z</time>
      </trkpt>
      <trkpt lat="44.97582" lon="5.18046">
        <ele>828.3</ele>
        <time>2015-10-04T10:12:34Z</time>
      </trkpt>
      <trkpt lat="44.97589" lon="5.18051">
        <ele>827.3</ele>
        <time>2015-10-04T10:12:45Z</time>
      </trkpt>
      <trkpt lat="44.97594" lon="5.18058">
        <ele>827.3</ele>
        <time>2015-10-04T10:12:51Z</time>
      </trkpt>
      <trkpt lat="44.97596" lon="5.18068">
        <ele>826.3</ele>
        <time>2015-10-04T10:12:57Z</time>
      </trkpt>
      <trkpt lat="44.976" lon="5.18079">
        <ele>826.3</ele>
        <time>2015-10-04T10:13:06Z</time>
      </trkpt>
      <trkpt lat="44.97603" lon="5.18091">
        <ele>829.3</ele>
        <time>2015-10-04T10:13:22Z</time>
      </trkpt>
      <trkpt lat="44.97604" lon="5.18091">
        <ele>828.3</ele>
        <time>2015-10-04T10:13:23Z</time>
      </trkpt>
      <trkpt lat="44.97618" lon="5.18104">
        <ele>829.3</ele>
        <time>2015-10-04T10:13:45Z</time>
      </trkpt>
      <trkpt lat="44.97621" lon="5.18111">
        <ele>827.3</ele>
        <time>2015-10-04T10:13:54Z</time>
      </trkpt>
      <trkpt lat="44.97628" lon="5.18117">
        <ele>829.3</ele>
        <time>2015-10-04T10:14:03Z</time>
      </trkpt>
      <trkpt lat="44.97636" lon="5.18119">
        <ele>828.3</ele>
        <time>2015-10-04T10:14:11Z</time>
      </trkpt>
      <trkpt lat="44.97643" lon="5.18124">
        <ele>828.3</ele>
        <time>2015-10-04T10:14:17Z</time>
      </trkpt>
      <trkpt lat="44.97648" lon="5.18131">
        <ele>828.3</ele>
        <time>2015-10-04T10:14:23Z</time>
      </trkpt>
      <trkpt lat="44.9765" lon="5.18132">
        <ele>827.3</ele>
        <time>2015-10-04T10:14:25Z</time>
      </trkpt>
      <trkpt lat="44.97663" lon="5.18139">
        <ele>827.3</ele>
        <time>2015-10-04T10:14:37Z</time>
      </trkpt>
      <trkpt lat="44.97671" lon="5.18143">
        <ele>828.3</ele>
        <time>2015-10-04T10:34:19Z</time>
      </trkpt>
      <trkpt lat="44.97672" lon="5.18143">
        <ele>828.3</ele>
        <time>2015-10-04T10:34:20Z</time>
      </trkpt>
      <trkpt lat="44.97688" lon="5.18144">
        <ele>825.3</ele>
        <time>2015-10-04T10:34:38Z</time>
      </trkpt>
      <trkpt lat="44.97696" lon="5.18147">
        <ele>824.3</ele>
        <time>2015-10-04T10:34:47Z</time>
      </trkpt>
      <trkpt lat="44.97703" lon="5.18152">
        <ele>823.3</ele>
        <time>2015-10-04T10:34:54Z</time>
      </trkpt>
      <trkpt lat="44.97708" lon="5.1816">
        <ele>821.3</ele>
        <time>2015-10-04T10:35:02Z</time>
      </trkpt>
      <trkpt lat="44.97716" lon="5.18163">
        <ele>820.3</ele>
        <time>2015-10-04T10:35:08Z</time>
      </trkpt>
      <trkpt lat="44.97724" lon="5.18168">
        <ele>819.3</ele>
        <time>2015-10-04T10:35:15Z</time>
      </trkpt>
      <trkpt lat="44.97731" lon="5.18173">
        <ele>818.3</ele>
        <time>2015-10-04T10:35:24Z</time>
      </trkpt>
      <trkpt lat="44.97732" lon="5.18174">
        <ele>817.3</ele>
        <time>2015-10-04T10:35:25Z</time>
      </trkpt>
      <trkpt lat="44.97746" lon="5.18184">
        <ele>812.3</ele>
        <time>2015-10-04T10:35:41Z</time>
      </trkpt>
      <trkpt lat="44.97748" lon="5.18196">
        <ele>811.3</ele>
        <time>2015-10-04T10:36:00Z</time>
      </trkpt>
      <trkpt lat="44.97755" lon="5.18191">
        <ele>812.3</ele>
        <time>2015-10-04T10:36:32Z</time>
      </trkpt>
      <trkpt lat="44.97757" lon="5.18191">
        <ele>812.3</ele>
        <time>2015-10-04T10:36:33Z</time>
      </trkpt>
      <trkpt lat="44.97769" lon="5.18192">
        <ele>810.3</ele>
        <time>2015-10-04T10:36:52Z</time>
      </trkpt>
      <trkpt lat="44.97777" lon="5.18189">
        <ele>807.3</ele>
        <time>2015-10-04T10:37:01Z</time>
      </trkpt>
      <trkpt lat="44.97785" lon="5.18191">
        <ele>807.3</ele>
        <time>2015-10-04T10:37:07Z</time>
      </trkpt>
      <trkpt lat="44.97794" lon="5.18192">
        <ele>806.3</ele>
        <time>2015-10-04T10:37:13Z</time>
      </trkpt>
      <trkpt lat="44.97803" lon="5.18193">
        <ele>807.3</ele>
        <time>2015-10-04T10:37:19Z</time>
      </trkpt>
      <trkpt lat="44.97811" lon="5.18193">
        <ele>806.3</ele>
        <time>2015-10-04T10:37:25Z</time>
      </trkpt>
      <trkpt lat="44.97819" lon="5.18192">
        <ele>807.3</ele>
        <time>2015-10-04T10:37:31Z</time>
      </trkpt>
      <trkpt lat="44.97827" lon="5.18194">
        <ele>806.3</ele>
        <time>2015-10-04T10:37:37Z</time>
      </trkpt>
      <trkpt lat="44.97828" lon="5.18194">
        <ele>806.3</ele>
        <time>2015-10-04T10:37:38Z</time>
      </trkpt>
      <trkpt lat="44.97843" lon="5.18197">
        <ele>804.3</ele>
        <time>2015-10-04T10:37:50Z</time>
      </trkpt>
      <trkpt lat="44.97844" lon="5.18197">
        <ele>805.3</ele>
        <time>2015-10-04T10:37:51Z</time>
      </trkpt>
      <trkpt lat="44.97858" lon="5.18193">
        <ele>804.3</ele>
        <time>2015-10-04T10:38:01Z</time>
      </trkpt>
      <trkpt lat="44.97865" lon="5.18192">
        <ele>804.3</ele>
        <time>2015-10-04T10:38:07Z</time>
      </trkpt>
      <trkpt lat="44.97876" lon="5.1819">
        <ele>806.3</ele>
        <time>2015-10-04T10:38:16Z</time>
      </trkpt>
      <trkpt lat="44.97889" lon="5.18192">
        <ele>806.3</ele>
        <time>2015-10-04T10:38:26Z</time>
      </trkpt>
      <trkpt lat="44.97897" lon="5.18194">
        <ele>804.3</ele>
        <time>2015-10-04T10:38:33Z</time>
      </trkpt>
      <trkpt lat="44.97902" lon="5.18195">
        <ele>804.3</ele>
        <time>2015-10-04T10:38:37Z</time>
      </trkpt>
      <trkpt lat="44.97906" lon="5.18196">
        <ele>804.3</ele>
        <time>2015-10-04T10:38:41Z</time>
      </trkpt>
      <trkpt lat="44.97918" lon="5.18197">
        <ele>803.3</ele>
        <time>2015-10-04T10:38:50Z</time>
      </trkpt>
      <trkpt lat="44.97927" lon="5.18198">
        <ele>804.3</ele>
        <time>2015-10-04T10:38:56Z</time>
      </trkpt>
      <trkpt lat="44.9793" lon="5.18198">
        <ele>804.3</ele>
        <time>2015-10-04T10:38:59Z</time>
      </trkpt>
      <trkpt lat="44.97937" lon="5.18199">
        <ele>803.3</ele>
        <time>2015-10-04T10:39:05Z</time>
      </trkpt>
      <trkpt lat="44.97947" lon="5.18203">
        <ele>804.3</ele>
        <time>2015-10-04T10:39:13Z</time>
      </trkpt>
      <trkpt lat="44.97952" lon="5.18211">
        <ele>804.3</ele>
        <time>2015-10-04T10:39:19Z</time>
      </trkpt>
      <trkpt lat="44.97958" lon="5.18218">
        <ele>802.3</ele>
        <time>2015-10-04T10:39:27Z</time>
      </trkpt>
      <trkpt lat="44.97966" lon="5.18219">
        <ele>801.3</ele>
        <time>2015-10-04T10:39:32Z</time>
      </trkpt>
      <trkpt lat="44.97973" lon="5.18223">
        <ele>800.3</ele>
        <time>2015-10-04T10:39:38Z</time>
      </trkpt>
      <trkpt lat="44.97974" lon="5.18224">
        <ele>800.3</ele>
        <time>2015-10-04T10:39:39Z</time>
      </trkpt>
      <trkpt lat="44.97989" lon="5.18233">
        <ele>795.3</ele>
        <time>2015-10-04T10:40:04Z</time>
      </trkpt>
      <trkpt lat="44.97997" lon="5.18234">
        <ele>792.3</ele>
        <time>2015-10-04T10:40:10Z</time>
      </trkpt>
      <trkpt lat="44.98003" lon="5.18236">
        <ele>791.3</ele>
        <time>2015-10-04T10:40:14Z</time>
      </trkpt>
      <trkpt lat="44.98009" lon="5.18239">
        <ele>787.3</ele>
        <time>2015-10-04T10:40:21Z</time>
      </trkpt>
      <trkpt lat="44.98014" lon="5.18239">
        <ele>786.3</ele>
        <time>2015-10-04T10:40:26Z</time>
      </trkpt>
      <trkpt lat="44.9801" lon="5.18249">
        <ele>779.3</ele>
        <time>2015-10-04T10:41:03Z</time>
      </trkpt>
      <trkpt lat="44.98009" lon="5.1825">
        <ele>780.3</ele>
        <time>2015-10-04T10:41:04Z</time>
      </trkpt>
      <trkpt lat="44.97999" lon="5.18265">
        <ele>782.3</ele>
        <time>2015-10-04T10:41:20Z</time>
      </trkpt>
      <trkpt lat="44.97991" lon="5.18269">
        <ele>779.3</ele>
        <time>2015-10-04T10:41:26Z</time>
      </trkpt>
      <trkpt lat="44.97986" lon="5.18272">
        <ele>780.3</ele>
        <time>2015-10-04T10:41:30Z</time>
      </trkpt>
      <trkpt lat="44.97978" lon="5.18277">
        <ele>781.3</ele>
        <time>2015-10-04T10:41:38Z</time>
      </trkpt>
      <trkpt lat="44.97967" lon="5.1828">
        <ele>782.3</ele>
        <time>2015-10-04T10:41:46Z</time>
      </trkpt>
      <trkpt lat="44.97964" lon="5.18282">
        <ele>784.3</ele>
        <time>2015-10-04T10:41:48Z</time>
      </trkpt>
      <trkpt lat="44.97955" lon="5.18283">
        <ele>783.3</ele>
        <time>2015-10-04T10:41:55Z</time>
      </trkpt>
      <trkpt lat="44.97949" lon="5.18282">
        <ele>781.3</ele>
        <time>2015-10-04T10:41:59Z</time>
      </trkpt>
      <trkpt lat="44.97942" lon="5.18282">
        <ele>781.3</ele>
        <time>2015-10-04T10:42:04Z</time>
      </trkpt>
      <trkpt lat="44.97939" lon="5.18282">
        <ele>781.3</ele>
        <time>2015-10-04T10:42:06Z</time>
      </trkpt>
      <trkpt lat="44.97925" lon="5.1828">
        <ele>782.3</ele>
        <time>2015-10-04T10:42:14Z</time>
      </trkpt>
      <trkpt lat="44.97918" lon="5.18279">
        <ele>781.3</ele>
        <time>2015-10-04T10:42:19Z</time>
      </trkpt>
      <trkpt lat="44.9791" lon="5.18278">
        <ele>781.3</ele>
        <time>2015-10-04T10:42:25Z</time>
      </trkpt>
      <trkpt lat="44.97901" lon="5.18278">
        <ele>779.3</ele>
        <time>2015-10-04T10:42:31Z</time>
      </trkpt>
      <trkpt lat="44.97892" lon="5.18277">
        <ele>779.3</ele>
        <time>2015-10-04T10:42:37Z</time>
      </trkpt>
      <trkpt lat="44.97886" lon="5.18275">
        <ele>777.3</ele>
        <time>2015-10-04T10:42:43Z</time>
      </trkpt>
      <trkpt lat="44.97877" lon="5.18273">
        <ele>774.3</ele>
        <time>2015-10-04T10:42:50Z</time>
      </trkpt>
      <trkpt lat="44.97869" lon="5.18275">
        <ele>774.3</ele>
        <time>2015-10-04T10:42:56Z</time>
      </trkpt>
      <trkpt lat="44.97861" lon="5.18277">
        <ele>773.3</ele>
        <time>2015-10-04T10:43:02Z</time>
      </trkpt>
      <trkpt lat="44.97852" lon="5.18276">
        <ele>772.3</ele>
        <time>2015-10-04T10:43:09Z</time>
      </trkpt>
      <trkpt lat="44.97851" lon="5.18275">
        <ele>773.3</ele>
        <time>2015-10-04T10:43:10Z</time>
      </trkpt>
      <trkpt lat="44.97839" lon="5.18272">
        <ele>771.3</ele>
        <time>2015-10-04T10:43:19Z</time>
      </trkpt>
      <trkpt lat="44.97831" lon="5.18271">
        <ele>771.3</ele>
        <time>2015-10-04T10:43:25Z</time>
      </trkpt>
      <trkpt lat="44.97822" lon="5.18272">
        <ele>770.3</ele>
        <time>2015-10-04T10:43:32Z</time>
      </trkpt>
      <trkpt lat="44.97814" lon="5.18272">
        <ele>769.3</ele>
        <time>2015-10-04T10:43:40Z</time>
      </trkpt>
      <trkpt lat="44.97805" lon="5.18273">
        <ele>773.3</ele>
        <time>2015-10-04T10:43:47Z</time>
      </trkpt>
      <trkpt lat="44.97798" lon="5.18278">
        <ele>777.3</ele>
        <time>2015-10-04T10:43:58Z</time>
      </trkpt>
      <trkpt lat="44.97793" lon="5.18287">
        <ele>779.3</ele>
        <time>2015-10-04T10:44:06Z</time>
      </trkpt>
      <trkpt lat="44.97786" lon="5.18292">
        <ele>779.3</ele>
        <time>2015-10-04T10:44:10Z</time>
      </trkpt>
      <trkpt lat="44.97779" lon="5.18296">
        <ele>777.3</ele>
        <time>2015-10-04T10:44:15Z</time>
      </trkpt>
      <trkpt lat="44.97777" lon="5.18297">
        <ele>777.3</ele>
        <time>2015-10-04T10:44:16Z</time>
      </trkpt>
      <trkpt lat="44.97766" lon="5.18308">
        <ele>776.3</ele>
        <time>2015-10-04T10:44:28Z</time>
      </trkpt>
      <trkpt lat="44.97759" lon="5.18316">
        <ele>776.3</ele>
        <time>2015-10-04T10:44:38Z</time>
      </trkpt>
      <trkpt lat="44.97755" lon="5.18323">
        <ele>775.3</ele>
        <time>2015-10-04T10:44:41Z</time>
      </trkpt>
      <trkpt lat="44.97748" lon="5.18329">
        <ele>776.3</ele>
        <time>2015-10-04T10:44:46Z</time>
      </trkpt>
      <trkpt lat="44.9774" lon="5.18336">
        <ele>773.3</ele>
        <time>2015-10-04T10:44:51Z</time>
      </trkpt>
      <trkpt lat="44.97736" lon="5.18344">
        <ele>775.3</ele>
        <time>2015-10-04T10:44:55Z</time>
      </trkpt>
      <trkpt lat="44.97731" lon="5.18353">
        <ele>775.3</ele>
        <time>2015-10-04T10:45:01Z</time>
      </trkpt>
      <trkpt lat="44.97728" lon="5.18365">
        <ele>774.3</ele>
        <time>2015-10-04T10:45:08Z</time>
      </trkpt>
      <trkpt lat="44.97724" lon="5.18376">
        <ele>773.3</ele>
        <time>2015-10-04T10:45:16Z</time>
      </trkpt>
      <trkpt lat="44.97723" lon="5.18377">
        <ele>774.3</ele>
        <time>2015-10-04T10:45:17Z</time>
      </trkpt>
      <trkpt lat="44.97713" lon="5.18395">
        <ele>779.3</ele>
        <time>2015-10-04T10:45:32Z</time>
      </trkpt>
      <trkpt lat="44.97711" lon="5.18402">
        <ele>780.3</ele>
        <time>2015-10-04T10:45:36Z</time>
      </trkpt>
      <trkpt lat="44.97706" lon="5.18409">
        <ele>779.3</ele>
        <time>2015-10-04T10:45:42Z</time>
      </trkpt>
      <trkpt lat="44.97702" lon="5.18418">
        <ele>781.3</ele>
        <time>2015-10-04T10:45:50Z</time>
      </trkpt>
      <trkpt lat="44.97697" lon="5.18428">
        <ele>781.3</ele>
        <time>2015-10-04T10:45:57Z</time>
      </trkpt>
      <trkpt lat="44.97692" lon="5.18436">
        <ele>780.3</ele>
        <time>2015-10-04T10:46:04Z</time>
      </trkpt>
      <trkpt lat="44.97688" lon="5.18441">
        <ele>779.3</ele>
        <time>2015-10-04T10:46:09Z</time>
      </trkpt>
      <trkpt lat="44.97681" lon="5.18448">
        <ele>776.3</ele>
        <time>2015-10-04T10:46:16Z</time>
      </trkpt>
      <trkpt lat="44.9768" lon="5.18449">
        <ele>776.3</ele>
        <time>2015-10-04T10:46:17Z</time>
      </trkpt>
      <trkpt lat="44.97676" lon="5.18467">
        <ele>776.3</ele>
        <time>2015-10-04T10:46:41Z</time>
      </trkpt>
      <trkpt lat="44.97672" lon="5.18478">
        <ele>779.3</ele>
        <time>2015-10-04T10:46:50Z</time>
      </trkpt>
      <trkpt lat="44.97665" lon="5.18483">
        <ele>780.3</ele>
        <time>2015-10-04T10:46:58Z</time>
      </trkpt>
      <trkpt lat="44.97656" lon="5.18486">
        <ele>784.3</ele>
        <time>2015-10-04T10:47:08Z</time>
      </trkpt>
      <trkpt lat="44.97648" lon="5.1849">
        <ele>787.3</ele>
        <time>2015-10-04T10:47:18Z</time>
      </trkpt>
      <trkpt lat="44.97646" lon="5.1849">
        <ele>787.3</ele>
        <time>2015-10-04T10:47:20Z</time>
      </trkpt>
      <trkpt lat="44.97631" lon="5.18491">
        <ele>792.3</ele>
        <time>2015-10-04T10:47:31Z</time>
      </trkpt>
      <trkpt lat="44.97623" lon="5.18493">
        <ele>787.3</ele>
        <time>2015-10-04T10:47:35Z</time>
      </trkpt>
      <trkpt lat="44.97616" lon="5.18494">
        <ele>785.3</ele>
        <time>2015-10-04T10:47:40Z</time>
      </trkpt>
      <trkpt lat="44.97609" lon="5.18494">
        <ele>787.3</ele>
        <time>2015-10-04T10:47:47Z</time>
      </trkpt>
      <trkpt lat="44.97602" lon="5.18495">
        <ele>787.3</ele>
        <time>2015-10-04T10:47:54Z</time>
      </trkpt>
      <trkpt lat="44.97595" lon="5.18495">
        <ele>783.3</ele>
        <time>2015-10-04T10:48:00Z</time>
      </trkpt>
      <trkpt lat="44.97586" lon="5.18499">
        <ele>792.3</ele>
        <time>2015-10-04T10:48:06Z</time>
      </trkpt>
      <trkpt lat="44.97578" lon="5.18501">
        <ele>797.3</ele>
        <time>2015-10-04T10:48:14Z</time>
      </trkpt>
      <trkpt lat="44.97573" lon="5.18505">
        <ele>793.3</ele>
        <time>2015-10-04T10:48:18Z</time>
      </trkpt>
      <trkpt lat="44.97569" lon="5.18504">
        <ele>795.3</ele>
        <time>2015-10-04T10:48:21Z</time>
      </trkpt>
      <trkpt lat="44.97559" lon="5.18505">
        <ele>796.3</ele>
        <time>2015-10-04T10:48:27Z</time>
      </trkpt>
      <trkpt lat="44.97552" lon="5.1851">
        <ele>797.3</ele>
        <time>2015-10-04T10:48:31Z</time>
      </trkpt>
      <trkpt lat="44.97545" lon="5.18513">
        <ele>792.3</ele>
        <time>2015-10-04T10:48:36Z</time>
      </trkpt>
      <trkpt lat="44.97537" lon="5.18516">
        <ele>791.3</ele>
        <time>2015-10-04T10:48:41Z</time>
      </trkpt>
      <trkpt lat="44.9753" lon="5.18524">
        <ele>789.3</ele>
        <time>2015-10-04T10:48:47Z</time>
      </trkpt>
      <trkpt lat="44.97527" lon="5.18535">
        <ele>790.3</ele>
        <time>2015-10-04T10:48:52Z</time>
      </trkpt>
      <trkpt lat="44.97523" lon="5.18545">
        <ele>787.3</ele>
        <time>2015-10-04T10:48:58Z</time>
      </trkpt>
      <trkpt lat="44.97519" lon="5.18554">
        <ele>788.3</ele>
        <time>2015-10-04T10:49:04Z</time>
      </trkpt>
      <trkpt lat="44.97516" lon="5.18558">
        <ele>789.3</ele>
        <time>2015-10-04T10:49:07Z</time>
      </trkpt>
      <trkpt lat="44.97515" lon="5.1857">
        <ele>788.3</ele>
        <time>2015-10-04T10:49:14Z</time>
      </trkpt>
      <trkpt lat="44.97513" lon="5.18582">
        <ele>787.3</ele>
        <time>2015-10-04T10:49:22Z</time>
      </trkpt>
      <trkpt lat="44.97512" lon="5.18583">
        <ele>787.3</ele>
        <time>2015-10-04T10:49:23Z</time>
      </trkpt>
      <trkpt lat="44.975" lon="5.18598">
        <ele>788.3</ele>
        <time>2015-10-04T10:49:36Z</time>
      </trkpt>
      <trkpt lat="44.97495" lon="5.18604">
        <ele>791.3</ele>
        <time>2015-10-04T10:49:43Z</time>
      </trkpt>
      <trkpt lat="44.97489" lon="5.18611">
        <ele>791.3</ele>
        <time>2015-10-04T10:49:48Z</time>
      </trkpt>
      <trkpt lat="44.97484" lon="5.18615">
        <ele>792.3</ele>
        <time>2015-10-04T10:49:52Z</time>
      </trkpt>
      <trkpt lat="44.97475" lon="5.18628">
        <ele>794.3</ele>
        <time>2015-10-04T10:50:01Z</time>
      </trkpt>
      <trkpt lat="44.97468" lon="5.18632">
        <ele>792.3</ele>
        <time>2015-10-04T10:50:08Z</time>
      </trkpt>
      <trkpt lat="44.97462" lon="5.18639">
        <ele>792.3</ele>
        <time>2015-10-04T10:50:16Z</time>
      </trkpt>
      <trkpt lat="44.97454" lon="5.18643">
        <ele>795.3</ele>
        <time>2015-10-04T10:50:22Z</time>
      </trkpt>
      <trkpt lat="44.97447" lon="5.18644">
        <ele>798.3</ele>
        <time>2015-10-04T10:50:26Z</time>
      </trkpt>
      <trkpt lat="44.97444" lon="5.18643">
        <ele>798.3</ele>
        <time>2015-10-04T10:50:27Z</time>
      </trkpt>
      <trkpt lat="44.97433" lon="5.18651">
        <ele>804.3</ele>
        <time>2015-10-04T10:50:40Z</time>
      </trkpt>
      <trkpt lat="44.97425" lon="5.18655">
        <ele>803.3</ele>
        <time>2015-10-04T10:50:48Z</time>
      </trkpt>
      <trkpt lat="44.97417" lon="5.18658">
        <ele>803.3</ele>
        <time>2015-10-04T10:50:53Z</time>
      </trkpt>
      <trkpt lat="44.97409" lon="5.18657">
        <ele>807.3</ele>
        <time>2015-10-04T10:51:01Z</time>
      </trkpt>
      <trkpt lat="44.97401" lon="5.18654">
        <ele>806.3</ele>
        <time>2015-10-04T10:51:11Z</time>
      </trkpt>
      <trkpt lat="44.97393" lon="5.18652">
        <ele>808.3</ele>
        <time>2015-10-04T10:51:18Z</time>
      </trkpt>
      <trkpt lat="44.97385" lon="5.18648">
        <ele>809.3</ele>
        <time>2015-10-04T10:51:25Z</time>
      </trkpt>
      <trkpt lat="44.97384" lon="5.18648">
        <ele>810.3</ele>
        <time>2015-10-04T10:51:26Z</time>
      </trkpt>
      <trkpt lat="44.9737" lon="5.1864">
        <ele>814.3</ele>
        <time>2015-10-04T10:51:41Z</time>
      </trkpt>
      <trkpt lat="44.97361" lon="5.18638">
        <ele>816.3</ele>
        <time>2015-10-04T10:51:47Z</time>
      </trkpt>
      <trkpt lat="44.97353" lon="5.18638">
        <ele>816.3</ele>
        <time>2015-10-04T10:51:55Z</time>
      </trkpt>
      <trkpt lat="44.97344" lon="5.18639">
        <ele>816.3</ele>
        <time>2015-10-04T10:52:02Z</time>
      </trkpt>
      <trkpt lat="44.97335" lon="5.18642">
        <ele>814.3</ele>
        <time>2015-10-04T10:52:10Z</time>
      </trkpt>
      <trkpt lat="44.97327" lon="5.18644">
        <ele>813.3</ele>
        <time>2015-10-04T10:52:32Z</time>
      </trkpt>
      <trkpt lat="44.97326" lon="5.18644">
        <ele>813.3</ele>
        <time>2015-10-04T10:52:33Z</time>
      </trkpt>
      <trkpt lat="44.97328" lon="5.18654">
        <ele>806.3</ele>
        <time>2015-10-04T10:54:24Z</time>
      </trkpt>
      <trkpt lat="44.97329" lon="5.18677">
        <ele>803.3</ele>
        <time>2015-10-04T10:54:39Z</time>
      </trkpt>
      <trkpt lat="44.97325" lon="5.18687">
        <ele>802.3</ele>
        <time>2015-10-04T10:54:46Z</time>
      </trkpt>
      <trkpt lat="44.97323" lon="5.18699">
        <ele>801.3</ele>
        <time>2015-10-04T10:54:54Z</time>
      </trkpt>
      <trkpt lat="44.9732" lon="5.18709">
        <ele>801.3</ele>
        <time>2015-10-04T10:55:01Z</time>
      </trkpt>
      <trkpt lat="44.97319" lon="5.18721">
        <ele>800.3</ele>
        <time>2015-10-04T10:55:07Z</time>
      </trkpt>
      <trkpt lat="44.97317" lon="5.18733">
        <ele>800.3</ele>
        <time>2015-10-04T10:55:14Z</time>
      </trkpt>
      <trkpt lat="44.97316" lon="5.18743">
        <ele>799.3</ele>
        <time>2015-10-04T10:55:21Z</time>
      </trkpt>
      <trkpt lat="44.97315" lon="5.18753">
        <ele>795.3</ele>
        <time>2015-10-04T10:56:03Z</time>
      </trkpt>
      <trkpt lat="44.97307" lon="5.18762">
        <ele>793.3</ele>
        <time>2015-10-04T10:56:17Z</time>
      </trkpt>
      <trkpt lat="44.97301" lon="5.1877">
        <ele>791.3</ele>
        <time>2015-10-04T10:56:25Z</time>
      </trkpt>
      <trkpt lat="44.97297" lon="5.18772">
        <ele>790.3</ele>
        <time>2015-10-04T10:56:29Z</time>
      </trkpt>
      <trkpt lat="44.9729" lon="5.18776">
        <ele>786.3</ele>
        <time>2015-10-04T10:56:36Z</time>
      </trkpt>
      <trkpt lat="44.97285" lon="5.18777">
        <ele>787.3</ele>
        <time>2015-10-04T10:56:42Z</time>
      </trkpt>
      <trkpt lat="44.97281" lon="5.18783">
        <ele>784.3</ele>
        <time>2015-10-04T10:56:47Z</time>
      </trkpt>
      <trkpt lat="44.97274" lon="5.18784">
        <ele>780.3</ele>
        <time>2015-10-04T10:56:52Z</time>
      </trkpt>
      <trkpt lat="44.97268" lon="5.18775">
        <ele>776.3</ele>
        <time>2015-10-04T10:57:02Z</time>
      </trkpt>
      <trkpt lat="44.97265" lon="5.18763">
        <ele>771.3</ele>
        <time>2015-10-04T10:57:15Z</time>
      </trkpt>
      <trkpt lat="44.97264" lon="5.18752">
        <ele>768.3</ele>
        <time>2015-10-04T10:57:26Z</time>
      </trkpt>
      <trkpt lat="44.97263" lon="5.1875">
        <ele>767.3</ele>
        <time>2015-10-04T10:57:28Z</time>
      </trkpt>
      <trkpt lat="44.97255" lon="5.18739">
        <ele>759.3</ele>
        <time>2015-10-04T10:57:54Z</time>
      </trkpt>
      <trkpt lat="44.97247" lon="5.1874">
        <ele>753.3</ele>
        <time>2015-10-04T10:58:11Z</time>
      </trkpt>
      <trkpt lat="44.9724" lon="5.18746">
        <ele>749.3</ele>
        <time>2015-10-04T10:58:21Z</time>
      </trkpt>
      <trkpt lat="44.97232" lon="5.1875">
        <ele>746.3</ele>
        <time>2015-10-04T10:58:29Z</time>
      </trkpt>
      <trkpt lat="44.9723" lon="5.18751">
        <ele>746.3</ele>
        <time>2015-10-04T10:58:31Z</time>
      </trkpt>
      <trkpt lat="44.9722" lon="5.18757">
        <ele>739.3</ele>
        <time>2015-10-04T10:58:43Z</time>
      </trkpt>
      <trkpt lat="44.97206" lon="5.18786">
        <ele>725.3</ele>
        <time>2015-10-04T10:59:08Z</time>
      </trkpt>
      <trkpt lat="44.97202" lon="5.18796">
        <ele>725.3</ele>
        <time>2015-10-04T10:59:16Z</time>
      </trkpt>
      <trkpt lat="44.97197" lon="5.18802">
        <ele>723.3</ele>
        <time>2015-10-04T10:59:23Z</time>
      </trkpt>
      <trkpt lat="44.97192" lon="5.18812">
        <ele>721.3</ele>
        <time>2015-10-04T10:59:32Z</time>
      </trkpt>
      <trkpt lat="44.97187" lon="5.18821">
        <ele>722.3</ele>
        <time>2015-10-04T10:59:41Z</time>
      </trkpt>
      <trkpt lat="44.97182" lon="5.1883">
        <ele>714.3</ele>
        <time>2015-10-04T10:59:48Z</time>
      </trkpt>
      <trkpt lat="44.97174" lon="5.18836">
        <ele>710.3</ele>
        <time>2015-10-04T10:59:55Z</time>
      </trkpt>
      <trkpt lat="44.97167" lon="5.18841">
        <ele>709.3</ele>
        <time>2015-10-04T11:00:01Z</time>
      </trkpt>
      <trkpt lat="44.97159" lon="5.18838">
        <ele>706.3</ele>
        <time>2015-10-04T11:00:10Z</time>
      </trkpt>
      <trkpt lat="44.9715" lon="5.18838">
        <ele>703.3</ele>
        <time>2015-10-04T11:00:17Z</time>
      </trkpt>
      <trkpt lat="44.97144" lon="5.18839">
        <ele>702.3</ele>
        <time>2015-10-04T11:00:24Z</time>
      </trkpt>
      <trkpt lat="44.97135" lon="5.18842">
        <ele>701.3</ele>
        <time>2015-10-04T11:00:31Z</time>
      </trkpt>
      <trkpt lat="44.97134" lon="5.18842">
        <ele>701.3</ele>
        <time>2015-10-04T11:00:32Z</time>
      </trkpt>
      <trkpt lat="44.97121" lon="5.18844">
        <ele>701.3</ele>
        <time>2015-10-04T11:00:41Z</time>
      </trkpt>
      <trkpt lat="44.97117" lon="5.18842">
        <ele>700.3</ele>
        <time>2015-10-04T11:00:45Z</time>
      </trkpt>
      <trkpt lat="44.97106" lon="5.18842">
        <ele>698.3</ele>
        <time>2015-10-04T11:00:52Z</time>
      </trkpt>
      <trkpt lat="44.971" lon="5.18841">
        <ele>696.3</ele>
        <time>2015-10-04T11:00:57Z</time>
      </trkpt>
      <trkpt lat="44.97091" lon="5.18843">
        <ele>695.3</ele>
        <time>2015-10-04T11:01:04Z</time>
      </trkpt>
      <trkpt lat="44.97082" lon="5.18839">
        <ele>693.3</ele>
        <time>2015-10-04T11:01:24Z</time>
      </trkpt>
      <trkpt lat="44.97079" lon="5.18839">
        <ele>692.3</ele>
        <time>2015-10-04T11:01:27Z</time>
      </trkpt>
      <trkpt lat="44.97059" lon="5.18847">
        <ele>689.3</ele>
        <time>2015-10-04T11:01:45Z</time>
      </trkpt>
      <trkpt lat="44.9705" lon="5.18845">
        <ele>687.3</ele>
        <time>2015-10-04T11:01:57Z</time>
      </trkpt>
      <trkpt lat="44.97042" lon="5.18849">
        <ele>685.3</ele>
        <time>2015-10-04T11:02:06Z</time>
      </trkpt>
      <trkpt lat="44.97034" lon="5.18852">
        <ele>685.3</ele>
        <time>2015-10-04T11:02:13Z</time>
      </trkpt>
      <trkpt lat="44.97025" lon="5.18855">
        <ele>685.3</ele>
        <time>2015-10-04T11:02:21Z</time>
      </trkpt>
      <trkpt lat="44.97017" lon="5.18855">
        <ele>683.3</ele>
        <time>2015-10-04T11:02:27Z</time>
      </trkpt>
      <trkpt lat="44.97009" lon="5.18853">
        <ele>680.3</ele>
        <time>2015-10-04T11:02:34Z</time>
      </trkpt>
      <trkpt lat="44.97001" lon="5.18851">
        <ele>677.3</ele>
        <time>2015-10-04T11:02:42Z</time>
      </trkpt>
      <trkpt lat="44.96992" lon="5.18852">
        <ele>675.3</ele>
        <time>2015-10-04T11:02:52Z</time>
      </trkpt>
      <trkpt lat="44.96991" lon="5.18852">
        <ele>675.3</ele>
        <time>2015-10-04T11:02:53Z</time>
      </trkpt>
      <trkpt lat="44.96975" lon="5.18854">
        <ele>669.3</ele>
        <time>2015-10-04T11:03:11Z</time>
      </trkpt>
      <trkpt lat="44.96968" lon="5.18855">
        <ele>666.3</ele>
        <time>2015-10-04T11:03:17Z</time>
      </trkpt>
      <trkpt lat="44.96961" lon="5.1885">
        <ele>664.3</ele>
        <time>2015-10-04T11:03:24Z</time>
      </trkpt>
      <trkpt lat="44.96954" lon="5.18842">
        <ele>661.3</ele>
        <time>2015-10-04T11:03:34Z</time>
      </trkpt>
      <trkpt lat="44.96948" lon="5.18848">
        <ele>660.3</ele>
        <time>2015-10-04T11:03:41Z</time>
      </trkpt>
      <trkpt lat="44.96943" lon="5.18858">
        <ele>660.3</ele>
        <time>2015-10-04T11:03:48Z</time>
      </trkpt>
      <trkpt lat="44.96935" lon="5.18858">
        <ele>661.3</ele>
        <time>2015-10-04T11:04:06Z</time>
      </trkpt>
      <trkpt lat="44.96934" lon="5.18857">
        <ele>661.3</ele>
        <time>2015-10-04T11:04:07Z</time>
      </trkpt>
      <trkpt lat="44.96918" lon="5.18855">
        <ele>663.3</ele>
        <time>2015-10-04T11:04:30Z</time>
      </trkpt>
      <trkpt lat="44.9691" lon="5.18853">
        <ele>661.3</ele>
        <time>2015-10-04T11:04:35Z</time>
      </trkpt>
      <trkpt lat="44.96902" lon="5.18847">
        <ele>659.3</ele>
        <time>2015-10-04T11:04:41Z</time>
      </trkpt>
      <trkpt lat="44.96894" lon="5.18845">
        <ele>658.3</ele>
        <time>2015-10-04T11:04:47Z</time>
      </trkpt>
      <trkpt lat="44.96886" lon="5.18842">
        <ele>658.3</ele>
        <time>2015-10-04T11:04:53Z</time>
      </trkpt>
      <trkpt lat="44.9689" lon="5.18831">
        <ele>654.3</ele>
        <time>2015-10-04T11:05:02Z</time>
      </trkpt>
      <trkpt lat="44.96898" lon="5.18828">
        <ele>654.3</ele>
        <time>2015-10-04T11:05:09Z</time>
      </trkpt>
      <trkpt lat="44.96899" lon="5.18827">
        <ele>654.3</ele>
        <time>2015-10-04T11:05:10Z</time>
      </trkpt>
      <trkpt lat="44.9691" lon="5.18812">
        <ele>649.3</ele>
        <time>2015-10-04T11:05:23Z</time>
      </trkpt>
      <trkpt lat="44.96914" lon="5.18803">
        <ele>650.3</ele>
        <time>2015-10-04T11:05:30Z</time>
      </trkpt>
      <trkpt lat="44.96918" lon="5.18795">
        <ele>649.3</ele>
        <time>2015-10-04T11:05:38Z</time>
      </trkpt>
      <trkpt lat="44.96925" lon="5.18788">
        <ele>649.3</ele>
        <time>2015-10-04T11:05:46Z</time>
      </trkpt>
      <trkpt lat="44.96932" lon="5.18781">
        <ele>645.3</ele>
        <time>2015-10-04T11:05:52Z</time>
      </trkpt>
      <trkpt lat="44.9694" lon="5.18779">
        <ele>642.3</ele>
        <time>2015-10-04T11:06:00Z</time>
      </trkpt>
      <trkpt lat="44.96949" lon="5.1878">
        <ele>639.3</ele>
        <time>2015-10-04T11:06:08Z</time>
      </trkpt>
      <trkpt lat="44.96957" lon="5.18783">
        <ele>638.3</ele>
        <time>2015-10-04T11:06:15Z</time>
      </trkpt>
      <trkpt lat="44.96958" lon="5.18783">
        <ele>637.3</ele>
        <time>2015-10-04T11:06:16Z</time>
      </trkpt>
      <trkpt lat="44.96973" lon="5.18785">
        <ele>634.3</ele>
        <time>2015-10-04T11:06:32Z</time>
      </trkpt>
      <trkpt lat="44.96981" lon="5.18783">
        <ele>631.3</ele>
        <time>2015-10-04T11:06:40Z</time>
      </trkpt>
      <trkpt lat="44.96989" lon="5.18778">
        <ele>630.3</ele>
        <time>2015-10-04T11:06:46Z</time>
      </trkpt>
      <trkpt lat="44.96992" lon="5.18778">
        <ele>630.3</ele>
        <time>2015-10-04T11:06:48Z</time>
      </trkpt>
      <trkpt lat="44.96999" lon="5.18775">
        <ele>628.3</ele>
        <time>2015-10-04T11:06:57Z</time>
      </trkpt>
      <trkpt lat="44.97006" lon="5.18771">
        <ele>628.3</ele>
        <time>2015-10-04T11:07:06Z</time>
      </trkpt>
      <trkpt lat="44.97013" lon="5.18764">
        <ele>627.3</ele>
        <time>2015-10-04T11:07:14Z</time>
      </trkpt>
      <trkpt lat="44.97019" lon="5.18756">
        <ele>625.3</ele>
        <time>2015-10-04T11:07:23Z</time>
      </trkpt>
      <trkpt lat="44.97021" lon="5.18755">
        <ele>625.3</ele>
        <time>2015-10-04T11:07:24Z</time>
      </trkpt>
      <trkpt lat="44.97032" lon="5.18744">
        <ele>627.3</ele>
        <time>2015-10-04T11:07:42Z</time>
      </trkpt>
      <trkpt lat="44.97036" lon="5.18734">
        <ele>628.3</ele>
        <time>2015-10-04T11:07:53Z</time>
      </trkpt>
      <trkpt lat="44.97036" lon="5.1873">
        <ele>625.3</ele>
        <time>2015-10-04T11:07:54Z</time>
      </trkpt>
      <trkpt lat="44.97037" lon="5.1872">
        <ele>626.3</ele>
        <time>2015-10-04T11:07:59Z</time>
      </trkpt>
      <trkpt lat="44.97037" lon="5.18715">
        <ele>626.3</ele>
        <time>2015-10-04T11:08:01Z</time>
      </trkpt>
      <trkpt lat="44.97034" lon="5.18706">
        <ele>625.3</ele>
        <time>2015-10-04T11:08:08Z</time>
      </trkpt>
      <trkpt lat="44.97028" lon="5.18697">
        <ele>625.3</ele>
        <time>2015-10-04T11:08:16Z</time>
      </trkpt>
      <trkpt lat="44.97023" lon="5.18687">
        <ele>623.3</ele>
        <time>2015-10-04T11:08:22Z</time>
      </trkpt>
      <trkpt lat="44.97019" lon="5.18681">
        <ele>620.3</ele>
        <time>2015-10-04T11:08:27Z</time>
      </trkpt>
      <trkpt lat="44.97015" lon="5.18676">
        <ele>618.3</ele>
        <time>2015-10-04T11:08:30Z</time>
      </trkpt>
      <trkpt lat="44.97009" lon="5.18662">
        <ele>614.3</ele>
        <time>2015-10-04T11:08:38Z</time>
      </trkpt>
      <trkpt lat="44.97004" lon="5.18652">
        <ele>611.3</ele>
        <time>2015-10-04T11:08:44Z</time>
      </trkpt>
      <trkpt lat="44.97001" lon="5.18642">
        <ele>611.3</ele>
        <time>2015-10-04T11:08:51Z</time>
      </trkpt>
      <trkpt lat="44.96998" lon="5.18632">
        <ele>609.3</ele>
        <time>2015-10-04T11:08:57Z</time>
      </trkpt>
      <trkpt lat="44.96995" lon="5.18623">
        <ele>609.3</ele>
        <time>2015-10-04T11:09:03Z</time>
      </trkpt>
      <trkpt lat="44.96993" lon="5.18611">
        <ele>608.3</ele>
        <time>2015-10-04T11:09:09Z</time>
      </trkpt>
      <trkpt lat="44.96993" lon="5.18601">
        <ele>607.3</ele>
        <time>2015-10-04T11:09:15Z</time>
      </trkpt>
      <trkpt lat="44.96993" lon="5.18588">
        <ele>605.3</ele>
        <time>2015-10-04T11:09:21Z</time>
      </trkpt>
      <trkpt lat="44.96992" lon="5.18579">
        <ele>604.3</ele>
        <time>2015-10-04T11:09:26Z</time>
      </trkpt>
      <trkpt lat="44.9699" lon="5.18567">
        <ele>605.3</ele>
        <time>2015-10-04T11:09:34Z</time>
      </trkpt>
      <trkpt lat="44.9699" lon="5.18565">
        <ele>605.3</ele>
        <time>2015-10-04T11:09:35Z</time>
      </trkpt>
      <trkpt lat="44.96985" lon="5.1855">
        <ele>604.3</ele>
        <time>2015-10-04T11:09:43Z</time>
      </trkpt>
      <trkpt lat="44.96979" lon="5.18542">
        <ele>603.3</ele>
        <time>2015-10-04T11:09:49Z</time>
      </trkpt>
      <trkpt lat="44.96973" lon="5.18533">
        <ele>604.3</ele>
        <time>2015-10-04T11:09:55Z</time>
      </trkpt>
      <trkpt lat="44.9697" lon="5.18522">
        <ele>605.3</ele>
        <time>2015-10-04T11:10:01Z</time>
      </trkpt>
      <trkpt lat="44.96969" lon="5.18511">
        <ele>605.3</ele>
        <time>2015-10-04T11:10:07Z</time>
      </trkpt>
      <trkpt lat="44.96967" lon="5.185">
        <ele>605.3</ele>
        <time>2015-10-04T11:10:13Z</time>
      </trkpt>
      <trkpt lat="44.96966" lon="5.18488">
        <ele>604.3</ele>
        <time>2015-10-04T11:10:21Z</time>
      </trkpt>
      <trkpt lat="44.96963" lon="5.18477">
        <ele>604.3</ele>
        <time>2015-10-04T11:10:27Z</time>
      </trkpt>
      <trkpt lat="44.96958" lon="5.18467">
        <ele>605.3</ele>
        <time>2015-10-04T11:10:33Z</time>
      </trkpt>
      <trkpt lat="44.96953" lon="5.18457">
        <ele>605.3</ele>
        <time>2015-10-04T11:10:39Z</time>
      </trkpt>
      <trkpt lat="44.96952" lon="5.18455">
        <ele>605.3</ele>
        <time>2015-10-04T11:10:40Z</time>
      </trkpt>
      <trkpt lat="44.96943" lon="5.18438">
        <ele>602.3</ele>
        <time>2015-10-04T11:10:52Z</time>
      </trkpt>
      <trkpt lat="44.96938" lon="5.18429">
        <ele>601.3</ele>
        <time>2015-10-04T11:10:58Z</time>
      </trkpt>
      <trkpt lat="44.96926" lon="5.18421">
        <ele>601.3</ele>
        <time>2015-10-04T11:11:08Z</time>
      </trkpt>
      <trkpt lat="44.96925" lon="5.1842">
        <ele>601.3</ele>
        <time>2015-10-04T11:11:09Z</time>
      </trkpt>
      <trkpt lat="44.96914" lon="5.18418">
        <ele>601.3</ele>
        <time>2015-10-04T11:11:18Z</time>
      </trkpt>
      <trkpt lat="44.96908" lon="5.18426">
        <ele>601.3</ele>
        <time>2015-10-04T11:11:25Z</time>
      </trkpt>
      <trkpt lat="44.96903" lon="5.18434">
        <ele>602.3</ele>
        <time>2015-10-04T11:11:30Z</time>
      </trkpt>
      <trkpt lat="44.96896" lon="5.1844">
        <ele>602.3</ele>
        <time>2015-10-04T11:11:36Z</time>
      </trkpt>
      <trkpt lat="44.96888" lon="5.18445">
        <ele>602.3</ele>
        <time>2015-10-04T11:11:43Z</time>
      </trkpt>
      <trkpt lat="44.96887" lon="5.18446">
        <ele>602.3</ele>
        <time>2015-10-04T11:11:44Z</time>
      </trkpt>
      <trkpt lat="44.96873" lon="5.18452">
        <ele>602.3</ele>
        <time>2015-10-04T11:11:56Z</time>
      </trkpt>
      <trkpt lat="44.96865" lon="5.18457">
        <ele>603.3</ele>
        <time>2015-10-04T11:12:02Z</time>
      </trkpt>
      <trkpt lat="44.96858" lon="5.18462">
        <ele>601.3</ele>
        <time>2015-10-04T11:12:09Z</time>
      </trkpt>
      <trkpt lat="44.9685" lon="5.18468">
        <ele>602.3</ele>
        <time>2015-10-04T11:12:16Z</time>
      </trkpt>
      <trkpt lat="44.96842" lon="5.18474">
        <ele>603.3</ele>
        <time>2015-10-04T11:12:25Z</time>
      </trkpt>
      <trkpt lat="44.96835" lon="5.18478">
        <ele>601.3</ele>
        <time>2015-10-04T11:12:34Z</time>
      </trkpt>
      <trkpt lat="44.96828" lon="5.18485">
        <ele>605.3</ele>
        <time>2015-10-04T11:12:41Z</time>
      </trkpt>
      <trkpt lat="44.96822" lon="5.18486">
        <ele>602.3</ele>
        <time>2015-10-04T11:12:47Z</time>
      </trkpt>
      <trkpt lat="44.96819" lon="5.18486">
        <ele>601.3</ele>
        <time>2015-10-04T11:12:49Z</time>
      </trkpt>
      <trkpt lat="44.96806" lon="5.18481">
        <ele>592.3</ele>
        <time>2015-10-04T11:13:00Z</time>
      </trkpt>
      <trkpt lat="44.96799" lon="5.18477">
        <ele>587.3</ele>
        <time>2015-10-04T11:13:05Z</time>
      </trkpt>
      <trkpt lat="44.9678" lon="5.18462">
        <ele>573.3</ele>
        <time>2015-10-04T11:13:21Z</time>
      </trkpt>
      <trkpt lat="44.96772" lon="5.18454">
        <ele>570.3</ele>
        <time>2015-10-04T11:13:29Z</time>
      </trkpt>
      <trkpt lat="44.96765" lon="5.18447">
        <ele>567.3</ele>
        <time>2015-10-04T11:13:36Z</time>
      </trkpt>
      <trkpt lat="44.96756" lon="5.18444">
        <ele>567.3</ele>
        <time>2015-10-04T11:13:44Z</time>
      </trkpt>
      <trkpt lat="44.9675" lon="5.18442">
        <ele>567.3</ele>
        <time>2015-10-04T11:13:48Z</time>
      </trkpt>
      <trkpt lat="44.96744" lon="5.18437">
        <ele>566.3</ele>
        <time>2015-10-04T11:13:53Z</time>
      </trkpt>
      <trkpt lat="44.96739" lon="5.18429">
        <ele>565.3</ele>
        <time>2015-10-04T11:13:59Z</time>
      </trkpt>
      <trkpt lat="44.96734" lon="5.18418">
        <ele>561.3</ele>
        <time>2015-10-04T11:14:06Z</time>
      </trkpt>
      <trkpt lat="44.9673" lon="5.18408">
        <ele>560.3</ele>
        <time>2015-10-04T11:14:12Z</time>
      </trkpt>
      <trkpt lat="44.96727" lon="5.18398">
        <ele>560.3</ele>
        <time>2015-10-04T11:14:18Z</time>
      </trkpt>
      <trkpt lat="44.96725" lon="5.18386">
        <ele>560.3</ele>
        <time>2015-10-04T11:14:25Z</time>
      </trkpt>
      <trkpt lat="44.96723" lon="5.18377">
        <ele>559.3</ele>
        <time>2015-10-04T11:14:30Z</time>
      </trkpt>
      <trkpt lat="44.9672" lon="5.18367">
        <ele>559.3</ele>
        <time>2015-10-04T11:14:36Z</time>
      </trkpt>
      <trkpt lat="44.96717" lon="5.18359">
        <ele>557.3</ele>
        <time>2015-10-04T11:14:40Z</time>
      </trkpt>
      <trkpt lat="44.96712" lon="5.18349">
        <ele>553.3</ele>
        <time>2015-10-04T11:14:48Z</time>
      </trkpt>
      <trkpt lat="44.96707" lon="5.18339">
        <ele>550.3</ele>
        <time>2015-10-04T11:14:55Z</time>
      </trkpt>
      <trkpt lat="44.96706" lon="5.18337">
        <ele>550.3</ele>
        <time>2015-10-04T11:14:56Z</time>
      </trkpt>
      <trkpt lat="44.96696" lon="5.1832">
        <ele>547.3</ele>
        <time>2015-10-04T11:15:09Z</time>
      </trkpt>
      <trkpt lat="44.9669" lon="5.18311">
        <ele>546.3</ele>
        <time>2015-10-04T11:15:16Z</time>
      </trkpt>
      <trkpt lat="44.96686" lon="5.18303">
        <ele>549.3</ele>
        <time>2015-10-04T11:15:22Z</time>
      </trkpt>
      <trkpt lat="44.9668" lon="5.18294">
        <ele>551.3</ele>
        <time>2015-10-04T11:15:29Z</time>
      </trkpt>
      <trkpt lat="44.96674" lon="5.18286">
        <ele>548.3</ele>
        <time>2015-10-04T11:15:35Z</time>
      </trkpt>
      <trkpt lat="44.96671" lon="5.18278">
        <ele>547.3</ele>
        <time>2015-10-04T11:15:40Z</time>
      </trkpt>
      <trkpt lat="44.96666" lon="5.18267">
        <ele>548.3</ele>
        <time>2015-10-04T11:15:47Z</time>
      </trkpt>
      <trkpt lat="44.96659" lon="5.18261">
        <ele>547.3</ele>
        <time>2015-10-04T11:15:54Z</time>
      </trkpt>
      <trkpt lat="44.96652" lon="5.18259">
        <ele>546.3</ele>
        <time>2015-10-04T11:16:00Z</time>
      </trkpt>
      <trkpt lat="44.96651" lon="5.18256">
        <ele>545.3</ele>
        <time>2015-10-04T11:16:03Z</time>
      </trkpt>
      <trkpt lat="44.96665" lon="5.18238">
        <ele>546.3</ele>
        <time>2015-10-04T11:17:11Z</time>
      </trkpt>
      <trkpt lat="44.96668" lon="5.18227">
        <ele>545.3</ele>
        <time>2015-10-04T11:17:18Z</time>
      </trkpt>
      <trkpt lat="44.96669" lon="5.18217">
        <ele>542.3</ele>
        <time>2015-10-04T11:17:23Z</time>
      </trkpt>
      <trkpt lat="44.96665" lon="5.18207">
        <ele>538.3</ele>
        <time>2015-10-04T11:17:29Z</time>
      </trkpt>
      <trkpt lat="44.96659" lon="5.18197">
        <ele>537.3</ele>
        <time>2015-10-04T11:17:37Z</time>
      </trkpt>
      <trkpt lat="44.96653" lon="5.18189">
        <ele>537.3</ele>
        <time>2015-10-04T11:17:44Z</time>
      </trkpt>
      <trkpt lat="44.96647" lon="5.18179">
        <ele>536.3</ele>
        <time>2015-10-04T11:17:51Z</time>
      </trkpt>
      <trkpt lat="44.96645" lon="5.18168">
        <ele>532.3</ele>
        <time>2015-10-04T11:17:59Z</time>
      </trkpt>
      <trkpt lat="44.96643" lon="5.18165">
        <ele>532.3</ele>
        <time>2015-10-04T11:18:01Z</time>
      </trkpt>
      <trkpt lat="44.96635" lon="5.1814">
        <ele>528.3</ele>
        <time>2015-10-04T11:18:18Z</time>
      </trkpt>
      <trkpt lat="44.96633" lon="5.1813">
        <ele>525.3</ele>
        <time>2015-10-04T11:18:25Z</time>
      </trkpt>
      <trkpt lat="44.9663" lon="5.18119">
        <ele>524.3</ele>
        <time>2015-10-04T11:18:31Z</time>
      </trkpt>
      <trkpt lat="44.96627" lon="5.18111">
        <ele>522.3</ele>
        <time>2015-10-04T11:18:36Z</time>
      </trkpt>
      <trkpt lat="44.96624" lon="5.181">
        <ele>520.3</ele>
        <time>2015-10-04T11:18:42Z</time>
      </trkpt>
      <trkpt lat="44.96622" lon="5.18089">
        <ele>520.3</ele>
        <time>2015-10-04T11:18:50Z</time>
      </trkpt>
      <trkpt lat="44.96621" lon="5.18078">
        <ele>518.3</ele>
        <time>2015-10-04T11:18:57Z</time>
      </trkpt>
      <trkpt lat="44.9662" lon="5.18072">
        <ele>517.3</ele>
        <time>2015-10-04T11:19:00Z</time>
      </trkpt>
      <trkpt lat="44.96615" lon="5.18055">
        <ele>514.3</ele>
        <time>2015-10-04T11:19:10Z</time>
      </trkpt>
      <trkpt lat="44.96608" lon="5.18049">
        <ele>513.3</ele>
        <time>2015-10-04T11:19:18Z</time>
      </trkpt>
      <trkpt lat="44.96608" lon="5.18048">
        <ele>513.3</ele>
        <time>2015-10-04T11:19:19Z</time>
      </trkpt>
      <trkpt lat="44.96599" lon="5.18067">
        <ele>513.3</ele>
        <time>2015-10-04T11:19:42Z</time>
      </trkpt>
      <trkpt lat="44.9659" lon="5.18068">
        <ele>514.3</ele>
        <time>2015-10-04T11:19:53Z</time>
      </trkpt>
      <trkpt lat="44.96589" lon="5.18056">
        <ele>511.3</ele>
        <time>2015-10-04T11:20:00Z</time>
      </trkpt>
      <trkpt lat="44.96588" lon="5.1805">
        <ele>511.3</ele>
        <time>2015-10-04T11:20:03Z</time>
      </trkpt>
      <trkpt lat="44.96584" lon="5.1804">
        <ele>510.3</ele>
        <time>2015-10-04T11:20:10Z</time>
      </trkpt>
      <trkpt lat="44.96579" lon="5.1803">
        <ele>508.3</ele>
        <time>2015-10-04T11:20:16Z</time>
      </trkpt>
      <trkpt lat="44.96573" lon="5.18021">
        <ele>506.3</ele>
        <time>2015-10-04T11:20:23Z</time>
      </trkpt>
      <trkpt lat="44.9657" lon="5.18017">
        <ele>506.3</ele>
        <time>2015-10-04T11:20:27Z</time>
      </trkpt>
      <trkpt lat="44.96561" lon="5.18006">
        <ele>503.3</ele>
        <time>2015-10-04T11:20:40Z</time>
      </trkpt>
      <trkpt lat="44.96555" lon="5.17997">
        <ele>500.3</ele>
        <time>2015-10-04T11:20:48Z</time>
      </trkpt>
      <trkpt lat="44.96555" lon="5.17989">
        <ele>496.3</ele>
        <time>2015-10-04T11:20:56Z</time>
      </trkpt>
      <trkpt lat="44.96565" lon="5.17985">
        <ele>494.3</ele>
        <time>2015-10-04T11:21:08Z</time>
      </trkpt>
      <trkpt lat="44.96573" lon="5.17988">
        <ele>492.3</ele>
        <time>2015-10-04T11:21:16Z</time>
      </trkpt>
      <trkpt lat="44.96581" lon="5.17988">
        <ele>492.3</ele>
        <time>2015-10-04T11:21:23Z</time>
      </trkpt>
      <trkpt lat="44.96586" lon="5.17981">
        <ele>493.3</ele>
        <time>2015-10-04T11:21:31Z</time>
      </trkpt>
      <trkpt lat="44.96588" lon="5.17978">
        <ele>494.3</ele>
        <time>2015-10-04T11:21:34Z</time>
      </trkpt>
      <trkpt lat="44.96589" lon="5.17957">
        <ele>493.3</ele>
        <time>2015-10-04T11:21:45Z</time>
      </trkpt>
      <trkpt lat="44.96589" lon="5.17945">
        <ele>495.3</ele>
        <time>2015-10-04T11:21:51Z</time>
      </trkpt>
      <trkpt lat="44.96589" lon="5.17941">
        <ele>494.3</ele>
        <time>2015-10-04T11:21:53Z</time>
      </trkpt>
      <trkpt lat="44.96589" lon="5.17929">
        <ele>495.3</ele>
        <time>2015-10-04T11:21:59Z</time>
      </trkpt>
      <trkpt lat="44.96589" lon="5.17917">
        <ele>493.3</ele>
        <time>2015-10-04T11:22:05Z</time>
      </trkpt>
      <trkpt lat="44.96588" lon="5.17907">
        <ele>493.3</ele>
        <time>2015-10-04T11:22:10Z</time>
      </trkpt>
      <trkpt lat="44.96587" lon="5.17899">
        <ele>492.3</ele>
        <time>2015-10-04T11:22:14Z</time>
      </trkpt>
      <trkpt lat="44.96585" lon="5.17883">
        <ele>489.3</ele>
        <time>2015-10-04T11:22:23Z</time>
      </trkpt>
      <trkpt lat="44.96586" lon="5.17872">
        <ele>486.3</ele>
        <time>2015-10-04T11:22:29Z</time>
      </trkpt>
      <trkpt lat="44.96587" lon="5.1786">
        <ele>484.3</ele>
        <time>2015-10-04T11:22:35Z</time>
      </trkpt>
      <trkpt lat="44.96587" lon="5.17859">
        <ele>483.3</ele>
        <time>2015-10-04T11:22:36Z</time>
      </trkpt>
      <trkpt lat="44.96584" lon="5.17843">
        <ele>482.3</ele>
        <time>2015-10-04T11:22:45Z</time>
      </trkpt>
      <trkpt lat="44.96582" lon="5.1783">
        <ele>480.3</ele>
        <time>2015-10-04T11:22:53Z</time>
      </trkpt>
      <trkpt lat="44.96577" lon="5.17821">
        <ele>480.3</ele>
        <time>2015-10-04T11:22:59Z</time>
      </trkpt>
      <trkpt lat="44.96572" lon="5.17813">
        <ele>479.3</ele>
        <time>2015-10-04T11:23:05Z</time>
      </trkpt>
      <trkpt lat="44.96568" lon="5.17801">
        <ele>482.3</ele>
        <time>2015-10-04T11:23:36Z</time>
      </trkpt>
      <trkpt lat="44.96568" lon="5.178">
        <ele>481.3</ele>
        <time>2015-10-04T11:23:37Z</time>
      </trkpt>
      <trkpt lat="44.96563" lon="5.17778">
        <ele>477.3</ele>
        <time>2015-10-04T11:24:15Z</time>
      </trkpt>
      <trkpt lat="44.96564" lon="5.17769">
        <ele>473.3</ele>
        <time>2015-10-04T11:25:16Z</time>
      </trkpt>
      <trkpt lat="44.96563" lon="5.17764">
        <ele>471.3</ele>
        <time>2015-10-04T11:25:19Z</time>
      </trkpt>
      <trkpt lat="44.96571" lon="5.17748">
        <ele>463.3</ele>
        <time>2015-10-04T11:25:35Z</time>
      </trkpt>
      <trkpt lat="44.96575" lon="5.17743">
        <ele>465.3</ele>
        <time>2015-10-04T11:25:40Z</time>
      </trkpt>
      <trkpt lat="44.96581" lon="5.17735">
        <ele>471.3</ele>
        <time>2015-10-04T11:25:44Z</time>
      </trkpt>
      <trkpt lat="44.96588" lon="5.17729">
        <ele>471.3</ele>
        <time>2015-10-04T11:25:50Z</time>
      </trkpt>
      <trkpt lat="44.96595" lon="5.17725">
        <ele>460.3</ele>
        <time>2015-10-04T11:26:03Z</time>
      </trkpt>
      <trkpt lat="44.96602" lon="5.17718">
        <ele>453.3</ele>
        <time>2015-10-04T11:26:14Z</time>
      </trkpt>
      <trkpt lat="44.96605" lon="5.17714">
        <ele>452.3</ele>
        <time>2015-10-04T11:26:19Z</time>
      </trkpt>
      <trkpt lat="44.96624" lon="5.17694">
        <ele>455.3</ele>
        <time>2015-10-04T11:26:42Z</time>
      </trkpt>
      <trkpt lat="44.9663" lon="5.17685">
        <ele>460.3</ele>
        <time>2015-10-04T11:26:49Z</time>
      </trkpt>
      <trkpt lat="44.96638" lon="5.17681">
        <ele>457.3</ele>
        <time>2015-10-04T11:26:53Z</time>
      </trkpt>
      <trkpt lat="44.96645" lon="5.17685">
        <ele>460.3</ele>
        <time>2015-10-04T11:26:57Z</time>
      </trkpt>
      <trkpt lat="44.96652" lon="5.17683">
        <ele>472.3</ele>
        <time>2015-10-04T11:27:15Z</time>
      </trkpt>
      <trkpt lat="44.96661" lon="5.1768">
        <ele>470.3</ele>
        <time>2015-10-04T11:27:21Z</time>
      </trkpt>
      <trkpt lat="44.96669" lon="5.17676">
        <ele>470.3</ele>
        <time>2015-10-04T11:27:33Z</time>
      </trkpt>
      <trkpt lat="44.96676" lon="5.1768">
        <ele>458.3</ele>
        <time>2015-10-04T11:27:48Z</time>
      </trkpt>
      <trkpt lat="44.96678" lon="5.17681">
        <ele>457.3</ele>
        <time>2015-10-04T11:27:49Z</time>
      </trkpt>
      <trkpt lat="44.96691" lon="5.1769">
        <ele>441.3</ele>
        <time>2015-10-04T11:28:04Z</time>
      </trkpt>
      <trkpt lat="44.96698" lon="5.17687">
        <ele>438.3</ele>
        <time>2015-10-04T11:28:11Z</time>
      </trkpt>
      <trkpt lat="44.96706" lon="5.17683">
        <ele>435.3</ele>
        <time>2015-10-04T11:28:19Z</time>
      </trkpt>
      <trkpt lat="44.96708" lon="5.17682">
        <ele>435.3</ele>
        <time>2015-10-04T11:28:21Z</time>
      </trkpt>
      <trkpt lat="44.96713" lon="5.17672">
        <ele>436.3</ele>
        <time>2015-10-04T11:28:28Z</time>
      </trkpt>
      <trkpt lat="44.9672" lon="5.17659">
        <ele>436.3</ele>
        <time>2015-10-04T11:28:36Z</time>
      </trkpt>
      <trkpt lat="44.96725" lon="5.17651">
        <ele>434.3</ele>
        <time>2015-10-04T11:28:41Z</time>
      </trkpt>
      <trkpt lat="44.96728" lon="5.17642">
        <ele>434.3</ele>
        <time>2015-10-04T11:28:46Z</time>
      </trkpt>
      <trkpt lat="44.96733" lon="5.17632">
        <ele>435.3</ele>
        <time>2015-10-04T11:28:51Z</time>
      </trkpt>
      <trkpt lat="44.96733" lon="5.17629">
        <ele>433.3</ele>
        <time>2015-10-04T11:28:53Z</time>
      </trkpt>
      <trkpt lat="44.9674" lon="5.1761">
        <ele>436.3</ele>
        <time>2015-10-04T11:29:02Z</time>
      </trkpt>
      <trkpt lat="44.96743" lon="5.17602">
        <ele>440.3</ele>
        <time>2015-10-04T11:29:06Z</time>
      </trkpt>
      <trkpt lat="44.96745" lon="5.17595">
        <ele>443.3</ele>
        <time>2015-10-04T11:29:08Z</time>
      </trkpt>
      <trkpt lat="44.96751" lon="5.17582">
        <ele>452.3</ele>
        <time>2015-10-04T11:29:10Z</time>
      </trkpt>
      <trkpt lat="44.96757" lon="5.17578">
        <ele>457.3</ele>
        <time>2015-10-04T11:29:18Z</time>
      </trkpt>
      <trkpt lat="44.96762" lon="5.17568">
        <ele>455.3</ele>
        <time>2015-10-04T11:29:37Z</time>
      </trkpt>
      <trkpt lat="44.96768" lon="5.17561">
        <ele>456.3</ele>
        <time>2015-10-04T11:29:43Z</time>
      </trkpt>
      <trkpt lat="44.96774" lon="5.17553">
        <ele>457.3</ele>
        <time>2015-10-04T11:29:51Z</time>
      </trkpt>
      <trkpt lat="44.96782" lon="5.1755">
        <ele>456.3</ele>
        <time>2015-10-04T11:30:06Z</time>
      </trkpt>
      <trkpt lat="44.96789" lon="5.17543">
        <ele>455.3</ele>
        <time>2015-10-04T11:30:22Z</time>
      </trkpt>
      <trkpt lat="44.96796" lon="5.17535">
        <ele>458.3</ele>
        <time>2015-10-04T11:30:34Z</time>
      </trkpt>
      <trkpt lat="44.96802" lon="5.17527">
        <ele>455.3</ele>
        <time>2015-10-04T11:30:46Z</time>
      </trkpt>
      <trkpt lat="44.96808" lon="5.17519">
        <ele>449.3</ele>
        <time>2015-10-04T11:30:53Z</time>
      </trkpt>
      <trkpt lat="44.96814" lon="5.1751">
        <ele>442.3</ele>
        <time>2015-10-04T11:31:04Z</time>
      </trkpt>
      <trkpt lat="44.96814" lon="5.17498">
        <ele>445.3</ele>
        <time>2015-10-04T11:31:14Z</time>
      </trkpt>
      <trkpt lat="44.96818" lon="5.17486">
        <ele>450.3</ele>
        <time>2015-10-04T11:31:25Z</time>
      </trkpt>
      <trkpt lat="44.96818" lon="5.17485">
        <ele>450.3</ele>
        <time>2015-10-04T11:31:26Z</time>
      </trkpt>
      <trkpt lat="44.96829" lon="5.17472">
        <ele>447.3</ele>
        <time>2015-10-04T11:31:42Z</time>
      </trkpt>
      <trkpt lat="44.96836" lon="5.17466">
        <ele>443.3</ele>
        <time>2015-10-04T11:31:49Z</time>
      </trkpt>
      <trkpt lat="44.96843" lon="5.17459">
        <ele>441.3</ele>
        <time>2015-10-04T11:31:56Z</time>
      </trkpt>
      <trkpt lat="44.96851" lon="5.17452">
        <ele>439.3</ele>
        <time>2015-10-04T11:32:02Z</time>
      </trkpt>
      <trkpt lat="44.96852" lon="5.17445">
        <ele>439.3</ele>
        <time>2015-10-04T11:32:06Z</time>
      </trkpt>
      <trkpt lat="44.96856" lon="5.17433">
        <ele>441.3</ele>
        <time>2015-10-04T11:32:17Z</time>
      </trkpt>
      <trkpt lat="44.96859" lon="5.17423">
        <ele>439.3</ele>
        <time>2015-10-04T11:32:40Z</time>
      </trkpt>
      <trkpt lat="44.9686" lon="5.1742">
        <ele>436.3</ele>
        <time>2015-10-04T11:32:43Z</time>
      </trkpt>
      <trkpt lat="44.96869" lon="5.17403">
        <ele>439.3</ele>
        <time>2015-10-04T11:32:57Z</time>
      </trkpt>
      <trkpt lat="44.96877" lon="5.174">
        <ele>439.3</ele>
        <time>2015-10-04T11:33:05Z</time>
      </trkpt>
      <trkpt lat="44.96884" lon="5.17397">
        <ele>444.3</ele>
        <time>2015-10-04T11:33:09Z</time>
      </trkpt>
      <trkpt lat="44.96892" lon="5.17391">
        <ele>448.3</ele>
        <time>2015-10-04T11:33:15Z</time>
      </trkpt>
      <trkpt lat="44.96897" lon="5.17386">
        <ele>452.3</ele>
        <time>2015-10-04T11:33:28Z</time>
      </trkpt>
      <trkpt lat="44.96906" lon="5.17384">
        <ele>456.3</ele>
        <time>2015-10-04T11:33:31Z</time>
      </trkpt>
      <trkpt lat="44.96913" lon="5.17384">
        <ele>457.3</ele>
        <time>2015-10-04T11:33:33Z</time>
      </trkpt>
      <trkpt lat="44.9692" lon="5.17378">
        <ele>452.3</ele>
        <time>2015-10-04T11:33:42Z</time>
      </trkpt>
      <trkpt lat="44.96928" lon="5.17375">
        <ele>451.3</ele>
        <time>2015-10-04T11:33:57Z</time>
      </trkpt>
      <trkpt lat="44.96929" lon="5.17374">
        <ele>452.3</ele>
        <time>2015-10-04T11:33:58Z</time>
      </trkpt>
      <trkpt lat="44.9693" lon="5.17354">
        <ele>441.3</ele>
        <time>2015-10-04T11:35:05Z</time>
      </trkpt>
      <trkpt lat="44.96931" lon="5.17353">
        <ele>442.3</ele>
        <time>2015-10-04T11:35:06Z</time>
      </trkpt>
      <trkpt lat="44.96938" lon="5.17337">
        <ele>448.3</ele>
        <time>2015-10-04T11:35:51Z</time>
      </trkpt>
      <trkpt lat="44.96944" lon="5.17328">
        <ele>437.3</ele>
        <time>2015-10-04T11:35:58Z</time>
      </trkpt>
      <trkpt lat="44.96951" lon="5.17321">
        <ele>434.3</ele>
        <time>2015-10-04T11:36:06Z</time>
      </trkpt>
      <trkpt lat="44.96951" lon="5.1732">
        <ele>434.3</ele>
        <time>2015-10-04T11:36:07Z</time>
      </trkpt>
      <trkpt lat="44.96966" lon="5.1733">
        <ele>436.3</ele>
        <time>2015-10-04T11:36:27Z</time>
      </trkpt>
      <trkpt lat="44.96973" lon="5.17336">
        <ele>440.3</ele>
        <time>2015-10-04T11:36:33Z</time>
      </trkpt>
      <trkpt lat="44.96982" lon="5.1734">
        <ele>449.3</ele>
        <time>2015-10-04T11:36:39Z</time>
      </trkpt>
      <trkpt lat="44.96987" lon="5.17345">
        <ele>453.3</ele>
        <time>2015-10-04T11:36:43Z</time>
      </trkpt>
      <trkpt lat="44.96993" lon="5.1735">
        <ele>455.3</ele>
        <time>2015-10-04T11:36:49Z</time>
      </trkpt>
      <trkpt lat="44.97002" lon="5.17352">
        <ele>454.3</ele>
        <time>2015-10-04T11:37:06Z</time>
      </trkpt>
      <trkpt lat="44.97002" lon="5.1735">
        <ele>454.3</ele>
        <time>2015-10-04T11:37:08Z</time>
      </trkpt>
      <trkpt lat="44.9701" lon="5.17345">
        <ele>445.3</ele>
        <time>2015-10-04T11:38:18Z</time>
      </trkpt>
      <trkpt lat="44.97013" lon="5.17349">
        <ele>450.3</ele>
        <time>2015-10-04T11:38:25Z</time>
      </trkpt>
      <trkpt lat="44.97019" lon="5.17342">
        <ele>454.3</ele>
        <time>2015-10-04T11:40:26Z</time>
      </trkpt>
      <trkpt lat="44.97024" lon="5.17351">
        <ele>444.3</ele>
        <time>2015-10-04T11:41:33Z</time>
      </trkpt>
      <trkpt lat="44.97025" lon="5.17373">
        <ele>447.3</ele>
        <time>2015-10-04T11:42:01Z</time>
      </trkpt>
      <trkpt lat="44.97027" lon="5.17386">
        <ele>450.3</ele>
        <time>2015-10-04T11:42:26Z</time>
      </trkpt>
      <trkpt lat="44.97035" lon="5.17389">
        <ele>454.3</ele>
        <time>2015-10-04T11:42:52Z</time>
      </trkpt>
      <trkpt lat="44.97036" lon="5.17389">
        <ele>454.3</ele>
        <time>2015-10-04T11:42:53Z</time>
      </trkpt>
      <trkpt lat="44.97051" lon="5.17398">
        <ele>459.3</ele>
        <time>2015-10-04T11:43:14Z</time>
      </trkpt>
      <trkpt lat="44.97057" lon="5.17404">
        <ele>467.3</ele>
        <time>2015-10-04T11:43:49Z</time>
      </trkpt>
      <trkpt lat="44.97058" lon="5.17407">
        <ele>466.3</ele>
        <time>2015-10-04T11:43:55Z</time>
      </trkpt>
      <trkpt lat="44.97065" lon="5.17399">
        <ele>480.3</ele>
        <time>2015-10-04T11:46:25Z</time>
      </trkpt>
      <trkpt lat="44.97073" lon="5.17381">
        <ele>494.3</ele>
        <time>2015-10-04T11:46:44Z</time>
      </trkpt>
      <trkpt lat="44.97078" lon="5.1737">
        <ele>496.3</ele>
        <time>2015-10-04T11:46:57Z</time>
      </trkpt>
      <trkpt lat="44.97085" lon="5.17376">
        <ele>497.3</ele>
        <time>2015-10-04T11:50:10Z</time>
      </trkpt>
      <trkpt lat="44.97085" lon="5.17377">
        <ele>497.3</ele>
        <time>2015-10-04T11:50:11Z</time>
      </trkpt>
      <trkpt lat="44.97091" lon="5.17386">
        <ele>467.3</ele>
        <time>2015-10-04T11:53:07Z</time>
      </trkpt>
      <trkpt lat="44.97097" lon="5.17371">
        <ele>468.3</ele>
        <time>2015-10-04T11:53:10Z</time>
      </trkpt>
      <trkpt lat="44.97104" lon="5.17375">
        <ele>453.3</ele>
        <time>2015-10-04T11:53:39Z</time>
      </trkpt>
      <trkpt lat="44.97112" lon="5.17372">
        <ele>449.3</ele>
        <time>2015-10-04T11:53:52Z</time>
      </trkpt>
      <trkpt lat="44.97121" lon="5.17367">
        <ele>448.3</ele>
        <time>2015-10-04T11:57:10Z</time>
      </trkpt>
      <trkpt lat="44.97123" lon="5.17364">
        <ele>439.3</ele>
        <time>2015-10-04T11:57:11Z</time>
      </trkpt>
      <trkpt lat="44.97135" lon="5.17359">
        <ele>435.3</ele>
        <time>2015-10-04T11:57:38Z</time>
      </trkpt>
      <trkpt lat="44.9714" lon="5.17358">
        <ele>435.3</ele>
        <time>2015-10-04T11:57:40Z</time>
      </trkpt>
      <trkpt lat="44.9715" lon="5.17355">
        <ele>432.3</ele>
        <time>2015-10-04T11:57:53Z</time>
      </trkpt>
      <trkpt lat="44.97156" lon="5.17353">
        <ele>426.3</ele>
        <time>2015-10-04T11:58:08Z</time>
      </trkpt>
      <trkpt lat="44.9716" lon="5.17354">
        <ele>424.3</ele>
        <time>2015-10-04T11:58:12Z</time>
      </trkpt>
      <trkpt lat="44.97167" lon="5.17348">
        <ele>421.3</ele>
        <time>2015-10-04T11:59:36Z</time>
      </trkpt>
      <trkpt lat="44.97177" lon="5.17337">
        <ele>409.3</ele>
        <time>2015-10-04T11:59:56Z</time>
      </trkpt>
      <trkpt lat="44.97182" lon="5.17327">
        <ele>404.3</ele>
        <time>2015-10-04T12:00:11Z</time>
      </trkpt>
      <trkpt lat="44.97178" lon="5.17317">
        <ele>405.3</ele>
        <time>2015-10-04T12:00:22Z</time>
      </trkpt>
      <trkpt lat="44.97185" lon="5.17318">
        <ele>407.3</ele>
        <time>2015-10-04T12:00:25Z</time>
      </trkpt>
      <trkpt lat="44.97194" lon="5.17317">
        <ele>406.3</ele>
        <time>2015-10-04T12:00:28Z</time>
      </trkpt>
      <trkpt lat="44.97195" lon="5.17307">
        <ele>410.3</ele>
        <time>2015-10-04T12:00:42Z</time>
      </trkpt>
      <trkpt lat="44.97196" lon="5.173">
        <ele>413.3</ele>
        <time>2015-10-04T12:00:46Z</time>
      </trkpt>
      <trkpt lat="44.97205" lon="5.17278">
        <ele>416.3</ele>
        <time>2015-10-04T12:01:05Z</time>
      </trkpt>
      <trkpt lat="44.97206" lon="5.17268">
        <ele>417.3</ele>
        <time>2015-10-04T12:01:20Z</time>
      </trkpt>
      <trkpt lat="44.9721" lon="5.17252">
        <ele>420.3</ele>
        <time>2015-10-04T12:01:33Z</time>
      </trkpt>
      <trkpt lat="44.97213" lon="5.1724">
        <ele>418.3</ele>
        <time>2015-10-04T12:01:47Z</time>
      </trkpt>
      <trkpt lat="44.97212" lon="5.17239">
        <ele>418.3</ele>
        <time>2015-10-04T12:01:48Z</time>
      </trkpt>
      <trkpt lat="44.97214" lon="5.17219">
        <ele>419.3</ele>
        <time>2015-10-04T12:02:05Z</time>
      </trkpt>
      <trkpt lat="44.97217" lon="5.17196">
        <ele>417.3</ele>
        <time>2015-10-04T12:02:19Z</time>
      </trkpt>
      <trkpt lat="44.97217" lon="5.17185">
        <ele>418.3</ele>
        <time>2015-10-04T12:02:26Z</time>
      </trkpt>
      <trkpt lat="44.97218" lon="5.17175">
        <ele>420.3</ele>
        <time>2015-10-04T12:02:31Z</time>
      </trkpt>
      <trkpt lat="44.97219" lon="5.17168">
        <ele>421.3</ele>
        <time>2015-10-04T12:02:35Z</time>
      </trkpt>
      <trkpt lat="44.9722" lon="5.17156">
        <ele>423.3</ele>
        <time>2015-10-04T12:02:42Z</time>
      </trkpt>
      <trkpt lat="44.97223" lon="5.17145">
        <ele>423.3</ele>
        <time>2015-10-04T12:02:50Z</time>
      </trkpt>
      <trkpt lat="44.97222" lon="5.17143">
        <ele>422.3</ele>
        <time>2015-10-04T12:02:51Z</time>
      </trkpt>
      <trkpt lat="44.97224" lon="5.17122">
        <ele>423.3</ele>
        <time>2015-10-04T12:03:05Z</time>
      </trkpt>
      <trkpt lat="44.97219" lon="5.17094">
        <ele>424.3</ele>
        <time>2015-10-04T12:03:24Z</time>
      </trkpt>
      <trkpt lat="44.97214" lon="5.17084">
        <ele>426.3</ele>
        <time>2015-10-04T12:03:32Z</time>
      </trkpt>
      <trkpt lat="44.97208" lon="5.17075">
        <ele>426.3</ele>
        <time>2015-10-04T12:03:41Z</time>
      </trkpt>
      <trkpt lat="44.97204" lon="5.17066">
        <ele>428.3</ele>
        <time>2015-10-04T12:03:49Z</time>
      </trkpt>
      <trkpt lat="44.972" lon="5.17055">
        <ele>425.3</ele>
        <time>2015-10-04T12:03:56Z</time>
      </trkpt>
      <trkpt lat="44.972" lon="5.17052">
        <ele>426.3</ele>
        <time>2015-10-04T12:03:57Z</time>
      </trkpt>
      <trkpt lat="44.97199" lon="5.17035">
        <ele>425.3</ele>
        <time>2015-10-04T12:04:10Z</time>
      </trkpt>
      <trkpt lat="44.972" lon="5.17024">
        <ele>425.3</ele>
        <time>2015-10-04T12:04:17Z</time>
      </trkpt>
      <trkpt lat="44.97203" lon="5.17013">
        <ele>428.3</ele>
        <time>2015-10-04T12:04:26Z</time>
      </trkpt>
      <trkpt lat="44.97203" lon="5.17002">
        <ele>429.3</ele>
        <time>2015-10-04T12:04:32Z</time>
      </trkpt>
      <trkpt lat="44.97206" lon="5.16992">
        <ele>428.3</ele>
        <time>2015-10-04T12:04:39Z</time>
      </trkpt>
      <trkpt lat="44.97211" lon="5.16983">
        <ele>429.3</ele>
        <time>2015-10-04T12:04:45Z</time>
      </trkpt>
      <trkpt lat="44.97214" lon="5.16975">
        <ele>430.3</ele>
        <time>2015-10-04T12:04:51Z</time>
      </trkpt>
      <trkpt lat="44.97219" lon="5.16967">
        <ele>431.3</ele>
        <time>2015-10-04T12:04:57Z</time>
      </trkpt>
      <trkpt lat="44.97222" lon="5.16965">
        <ele>432.3</ele>
        <time>2015-10-04T12:04:59Z</time>
      </trkpt>
      <trkpt lat="44.9723" lon="5.1695">
        <ele>436.3</ele>
        <time>2015-10-04T12:05:07Z</time>
      </trkpt>
      <trkpt lat="44.97236" lon="5.16941">
        <ele>437.3</ele>
        <time>2015-10-04T12:05:15Z</time>
      </trkpt>
      <trkpt lat="44.97237" lon="5.16929">
        <ele>437.3</ele>
        <time>2015-10-04T12:05:23Z</time>
      </trkpt>
      <trkpt lat="44.97244" lon="5.16922">
        <ele>438.3</ele>
        <time>2015-10-04T12:05:30Z</time>
      </trkpt>
      <trkpt lat="44.9725" lon="5.16912">
        <ele>441.3</ele>
        <time>2015-10-04T12:05:36Z</time>
      </trkpt>
      <trkpt lat="44.97257" lon="5.16905">
        <ele>444.3</ele>
        <time>2015-10-04T12:05:42Z</time>
      </trkpt>
      <trkpt lat="44.97264" lon="5.16897">
        <ele>444.3</ele>
        <time>2015-10-04T12:05:52Z</time>
      </trkpt>
      <trkpt lat="44.97263" lon="5.16885">
        <ele>444.3</ele>
        <time>2015-10-04T12:06:14Z</time>
      </trkpt>
      <trkpt lat="44.97262" lon="5.16884">
        <ele>444.3</ele>
        <time>2015-10-04T12:06:15Z</time>
      </trkpt>
      <trkpt lat="44.9725" lon="5.16855">
        <ele>446.3</ele>
        <time>2015-10-04T12:06:34Z</time>
      </trkpt>
      <trkpt lat="44.9725" lon="5.16853">
        <ele>445.3</ele>
        <time>2015-10-04T12:06:35Z</time>
      </trkpt>
      <trkpt lat="44.9725" lon="5.16851">
        <ele>445.3</ele>
        <time>2015-10-04T12:06:36Z</time>
      </trkpt>
      <trkpt lat="44.97248" lon="5.16845">
        <ele>444.3</ele>
        <time>2015-10-04T12:06:39Z</time>
      </trkpt>
      <trkpt lat="44.97247" lon="5.1684">
        <ele>446.3</ele>
        <time>2015-10-04T12:06:41Z</time>
      </trkpt>
      <trkpt lat="44.97246" lon="5.16836">
        <ele>446.3</ele>
        <time>2015-10-04T12:06:44Z</time>
      </trkpt>
      <trkpt lat="44.97245" lon="5.16835">
        <ele>446.3</ele>
        <time>2015-10-04T12:06:45Z</time>
      </trkpt>
      <trkpt lat="44.97245" lon="5.16833">
        <ele>446.3</ele>
        <time>2015-10-04T12:06:46Z</time>
      </trkpt>
      <trkpt lat="44.97244" lon="5.16831">
        <ele>447.3</ele>
        <time>2015-10-04T12:06:47Z</time>
      </trkpt>
      <trkpt lat="44.97243" lon="5.16829">
        <ele>447.3</ele>
        <time>2015-10-04T12:06:48Z</time>
      </trkpt>
      <trkpt lat="44.97243" lon="5.16828">
        <ele>447.3</ele>
        <time>2015-10-04T12:06:49Z</time>
      </trkpt>
      <trkpt lat="44.97242" lon="5.16827">
        <ele>447.3</ele>
        <time>2015-10-04T12:06:50Z</time>
      </trkpt>
      <trkpt lat="44.97242" lon="5.16825">
        <ele>446.3</ele>
        <time>2015-10-04T12:06:51Z</time>
      </trkpt>
      <trkpt lat="44.97241" lon="5.16823">
        <ele>446.3</ele>
        <time>2015-10-04T12:06:53Z</time>
      </trkpt>
      <trkpt lat="44.9724" lon="5.16821">
        <ele>445.3</ele>
        <time>2015-10-04T12:06:54Z</time>
      </trkpt>
      <trkpt lat="44.97239" lon="5.1682">
        <ele>446.3</ele>
        <time>2015-10-04T12:06:55Z</time>
      </trkpt>
      <trkpt lat="44.97238" lon="5.16818">
        <ele>446.3</ele>
        <time>2015-10-04T12:06:56Z</time>
      </trkpt>
      <trkpt lat="44.97238" lon="5.16817">
        <ele>446.3</ele>
        <time>2015-10-04T12:06:57Z</time>
      </trkpt>
      <trkpt lat="44.97237" lon="5.16814">
        <ele>446.3</ele>
        <time>2015-10-04T12:06:59Z</time>
      </trkpt>
      <trkpt lat="44.97236" lon="5.16813">
        <ele>446.3</ele>
        <time>2015-10-04T12:07:00Z</time>
      </trkpt>
      <trkpt lat="44.97236" lon="5.16812">
        <ele>446.3</ele>
        <time>2015-10-04T12:07:01Z</time>
      </trkpt>
      <trkpt lat="44.97236" lon="5.1681">
        <ele>446.3</ele>
        <time>2015-10-04T12:07:02Z</time>
      </trkpt>
      <trkpt lat="44.97235" lon="5.16808">
        <ele>447.3</ele>
        <time>2015-10-04T12:07:03Z</time>
      </trkpt>
      <trkpt lat="44.97235" lon="5.16807">
        <ele>446.3</ele>
        <time>2015-10-04T12:07:04Z</time>
      </trkpt>
      <trkpt lat="44.97234" lon="5.16806">
        <ele>447.3</ele>
        <time>2015-10-04T12:07:05Z</time>
      </trkpt>
      <trkpt lat="44.97233" lon="5.16803">
        <ele>446.3</ele>
        <time>2015-10-04T12:07:07Z</time>
      </trkpt>
      <trkpt lat="44.97233" lon="5.16803">
        <ele>445.3</ele>
        <time>2015-10-04T12:07:08Z</time>
      </trkpt>
      <trkpt lat="44.97233" lon="5.16802">
        <ele>445.3</ele>
        <time>2015-10-04T12:07:09Z</time>
      </trkpt>
      <trkpt lat="44.97232" lon="5.16801">
        <ele>446.3</ele>
        <time>2015-10-04T12:07:10Z</time>
      </trkpt>
      <trkpt lat="44.97232" lon="5.168">
        <ele>446.3</ele>
        <time>2015-10-04T12:07:11Z</time>
      </trkpt>
      <trkpt lat="44.97231" lon="5.16798">
        <ele>446.3</ele>
        <time>2015-10-04T12:07:12Z</time>
      </trkpt>
      <trkpt lat="44.9723" lon="5.16797">
        <ele>446.3</ele>
        <time>2015-10-04T12:07:13Z</time>
      </trkpt>
      <trkpt lat="44.9723" lon="5.16795">
        <ele>446.3</ele>
        <time>2015-10-04T12:07:14Z</time>
      </trkpt>
      <trkpt lat="44.9723" lon="5.16794">
        <ele>446.3</ele>
        <time>2015-10-04T12:07:15Z</time>
      </trkpt>
      <trkpt lat="44.97231" lon="5.16794">
        <ele>446.3</ele>
        <time>2015-10-04T12:07:16Z</time>
      </trkpt>
      <trkpt lat="44.97255" lon="5.16866">
        <ele>445.3</ele>
        <time>2015-10-04T12:06:27Z</time>
      </trkpt>
      <trkpt lat="44.97251" lon="5.16858">
        <ele>446.3</ele>
        <time>2015-10-04T14:06:32Z</time>
      </trkpt>
    </trkseg>
  </trk>
</gpx>